Observation data for McCamey on 02/11/2018      Previous  Date  Next       Current Mesonet Observations  Soil Data  Daily Summary Page  Observations in Plain Language
KMC4 110600Z 06012KT 07/M01 A2985 RMK A01 T00671013  RH  057%=      5-min Rain = 0
KMC4 110601Z 06012G19KT 07/M01 A2985 RMK A01 T00671013  RH  057%=      5-min Rain = 0
KMC4 110602Z 06013KT 07/M01 A2985 RMK A01 T00671012  RH  057%=      5-min Rain = 0
KMC4 110603Z 05014KT 07/M01 A2985 RMK A01 T00671012  RH  057%=      5-min Rain = 0
KMC4 110604Z 06013G18KT 07/M01 A2985 RMK A01 T00671012  RH  057%=      5-min Rain = 0
KMC4 110605Z 06014KT 07/M01 A2985 RMK A01 T00661011  RH  058%=      5-min Rain = 0
KMC4 110606Z 05012G17KT 07/M01 A2985 RMK A01 T00671011  RH  058%=      5-min Rain = 0
KMC4 110607Z 05013KT 07/M01 A2985 RMK A01 T00661012  RH  057%=      5-min Rain = 0
KMC4 110608Z 05011KT 07/M01 A2986 RMK A01 T00661013  RH  057%=      5-min Rain = 0
KMC4 110609Z 04012KT 07/M02 A2986 RMK A01 T00651015  RH  057%=      5-min Rain = 0
KMC4 110610Z 04012KT 06/M02 A2986 RMK A01 T00631017  RH  057%=      5-min Rain = 0
KMC4 110611Z 05014KT 06/M02 A2986 RMK A01 T00621018  RH  057%=      5-min Rain = 0
KMC4 110612Z 05013KT 06/M02 A2986 RMK A01 T00601020  RH  056%=      5-min Rain = 0
KMC4 110613Z 05016G21KT 06/M02 A2986 RMK A01 T00581022  RH  056%=      5-min Rain = 0
KMC4 110614Z 05013KT 06/M02 A2986 RMK A01 T00571023  RH  057%=      5-min Rain = 0
KMC4 110615Z 05015KT 06/M02 A2986 RMK A01 T00561023  RH  057%=      5-min Rain = 0
KMC4 110616Z 05019KT 06/M02 A2986 RMK A01 T00551024  RH  057%=      5-min Rain = 0
KMC4 110617Z 05016G22KT 05/M02 A2986 RMK A01 T00541024  RH  057%=      5-min Rain = 0
KMC4 110618Z 05015G20KT 05/M03 A2986 RMK A01 T00531025  RH  057%=      5-min Rain = 0
KMC4 110619Z 05016KT 05/M03 A2986 RMK A01 T00521025  RH  057%=      5-min Rain = 0
KMC4 110620Z 06012KT 05/M03 A2986 RMK A01 T00521026  RH  057%=      5-min Rain = 0
KMC4 110621Z 05016KT 05/M03 A2986 RMK A01 T00511026  RH  058%=      5-min Rain = 0
KMC4 110622Z 06013G20KT 05/M03 A2986 RMK A01 T00501027  RH  058%=      5-min Rain = 0
KMC4 110623Z 06016G21KT 05/M03 A2986 RMK A01 T00491027  RH  058%=      5-min Rain = 0
KMC4 110624Z 06017KT 05/M03 A2986 RMK A01 T00491027  RH  058%=      5-min Rain = 0
KMC4 110625Z 06015G21KT 05/M03 A2986 RMK A01 T00481028  RH  058%=      5-min Rain = 0
KMC4 110626Z 05015G21KT 05/M03 A2986 RMK A01 T00481027  RH  058%=      5-min Rain = 0
KMC4 110627Z 06017KT 05/M03 A2986 RMK A01 T00481027  RH  058%=      5-min Rain = 0
KMC4 110628Z 05013G19KT 05/M03 A2986 RMK A01 T00471027  RH  058%=      5-min Rain = 0
KMC4 110629Z 06014KT 05/M03 A2986 RMK A01 T00471027  RH  059%=      5-min Rain = 0
KMC4 110630Z 06016G21KT 05/M03 A2986 RMK A01 T00471027  RH  059%=      5-min Rain = 0
KMC4 110631Z 06019KT 05/M03 A2986 RMK A01 T00461027  RH  059%=      5-min Rain = 0
KMC4 110632Z 06019KT 05/M03 A2986 RMK A01 T00461027  RH  059%=      5-min Rain = 0
KMC4 110633Z 07014G19KT 05/M03 A2987 RMK A01 T00461027  RH  059%=      5-min Rain = 0
KMC4 110634Z 06015KT 05/M03 A2987 RMK A01 T00461027  RH  059%=      5-min Rain = 0
KMC4 110635Z 06015KT 05/M03 A2987 RMK A01 T00461027  RH  059%=      5-min Rain = 0
KMC4 110636Z 06016KT 05/M03 A2987 RMK A01 T00451028  RH  059%=      5-min Rain = 0
KMC4 110637Z 06013KT 05/M03 A2987 RMK A01 T00451028  RH  059%=      5-min Rain = 0
KMC4 110638Z 06013KT 05/M03 A2987 RMK A01 T00451028  RH  059%=      5-min Rain = 0
KMC4 110639Z 06014G19KT 05/M03 A2987 RMK A01 T00451028  RH  059%=      5-min Rain = 0
KMC4 110640Z 06017KT 05/M03 A2987 RMK A01 T00451028  RH  059%=      5-min Rain = 0
KMC4 110641Z 06015KT 05/M03 A2987 RMK A01 T00451028  RH  059%=      5-min Rain = 0
KMC4 110642Z 06014KT 05/M03 A2987 RMK A01 T00451028  RH  059%=      5-min Rain = 0
KMC4 110643Z 06014KT 05/M03 A2987 RMK A01 T00451028  RH  059%=      5-min Rain = 0
KMC4 110644Z 06016KT 05/M03 A2987 RMK A01 T00451028  RH  059%=      5-min Rain = 0
KMC4 110645Z 06017KT 05/M03 A2987 RMK A01 T00451029  RH  059%=      5-min Rain = 0
KMC4 110646Z 06015KT 04/M03 A2987 RMK A01 T00441030  RH  059%=      5-min Rain = 0
KMC4 110647Z 06016KT 04/M03 A2987 RMK A01 T00441030  RH  059%=      5-min Rain = 0
KMC4 110648Z 05012KT 04/M03 A2987 RMK A01 T00431031  RH  059%=      5-min Rain = 0
KMC4 110649Z 05013KT 04/M03 A2987 RMK A01 T00431031  RH  059%=      5-min Rain = 0
KMC4 110650Z 05016KT 04/M03 A2987 RMK A01 T00431031  RH  058%=      5-min Rain = 0
KMC4 110651Z 05016KT 04/M03 A2987 RMK A01 T00421033  RH  058%=      5-min Rain = 0
KMC4 110652Z 05016G21KT 04/M03 A2987 RMK A01 T00411033  RH  058%=      5-min Rain = 0
KMC4 110653Z 06014KT 04/M03 A2988 RMK A01 T00401033  RH  059%=      5-min Rain = 0
KMC4 110654Z 05018KT 04/M03 A2987 RMK A01 T00401034  RH  059%=      5-min Rain = 0
KMC4 110655Z 04018KT 04/M04 A2987 RMK A01 T00391035  RH  059%=      5-min Rain = 0
KMC4 110656Z 05015KT 04/M04 A2988 RMK A01 T00381035  RH  059%=      5-min Rain = 0
KMC4 110657Z 05017G23KT 04/M04 A2988 RMK A01 T00381035  RH  059%=      5-min Rain = 0
KMC4 110658Z 05015KT 04/M04 A2988 RMK A01 T00381035  RH  059%=      5-min Rain = 0
KMC4 110659Z 05016KT 04/M04 A2988 RMK A01 T00371035  RH  059%=      5-min Rain = 0
KMC4 110700Z 05013KT 04/M04 A2988 RMK A01 T00371035  RH  059%=      5-min Rain = 0
KMC4 110701Z 06013KT 04/M03 A2988 RMK A01 T00371034  RH  060%=      5-min Rain = 0
KMC4 110702Z 06013KT 04/M04 A2988 RMK A01 T00371035  RH  059%=      5-min Rain = 0
KMC4 110703Z 05014KT 04/M04 A2988 RMK A01 T00371035  RH  059%=      5-min Rain = 0
KMC4 110704Z 05013KT 04/M04 A2988 RMK A01 T00371035  RH  059%=      5-min Rain = 0
KMC4 110705Z 06013G19KT 04/M03 A2989 RMK A01 T00371034  RH  060%=      5-min Rain = 0
KMC4 110706Z 06016G22KT 04/M03 A2989 RMK A01 T00371034  RH  060%=      5-min Rain = 0
KMC4 110707Z 05019KT 04/M04 A2988 RMK A01 T00371035  RH  059%=      5-min Rain = 0
KMC4 110708Z 06018KT 04/M04 A2989 RMK A01 T00361036  RH  059%=      5-min Rain = 0
KMC4 110709Z 06014G20KT 04/M04 A2989 RMK A01 T00351036  RH  060%=      5-min Rain = 0
KMC4 110710Z 05015G20KT 04/M04 A2989 RMK A01 T00351036  RH  060%=      5-min Rain = 0
KMC4 110711Z 05019G24KT 04/M04 A2989 RMK A01 T00351036  RH  060%=      5-min Rain = 0
KMC4 110712Z 05016KT 03/M04 A2989 RMK A01 T00341037  RH  060%=      5-min Rain = 0
KMC4 110713Z 05018G24KT 03/M04 A2989 RMK A01 T00341037  RH  060%=      5-min Rain = 0
KMC4 110714Z 05018G26KT 03/M04 A2989 RMK A01 T00341038  RH  060%=      5-min Rain = 0
KMC4 110715Z 06018KT 03/M04 A2989 RMK A01 T00331038  RH  060%=      5-min Rain = 0
KMC4 110716Z 05014G20KT 03/M04 A2989 RMK A01 T00321039  RH  060%=      5-min Rain = 0
KMC4 110717Z 05013KT 03/M04 A2989 RMK A01 T00321039  RH  060%=      5-min Rain = 0
KMC4 110718Z 05017KT 03/M04 A2989 RMK A01 T00321039  RH  059%=      5-min Rain = 0
KMC4 110719Z 05014G19KT 03/M04 A299 RMK A01 T00321040  RH  059%=      5-min Rain = 0
KMC4 110720Z 05016KT 03/M04 A299 RMK A01 T00321040  RH  060%=      5-min Rain = 0
KMC4 110721Z 05016KT 03/M04 A299 RMK A01 T00321040  RH  059%=      5-min Rain = 0
KMC4 110722Z 05018KT 03/M04 A299 RMK A01 T00311040  RH  059%=      5-min Rain = 0
KMC4 110723Z 05013KT 03/M04 A299 RMK A01 T00311040  RH  059%=      5-min Rain = 0
KMC4 110724Z 05016G23KT 03/M04 A299 RMK A01 T00311040  RH  059%=      5-min Rain = 0
KMC4 110725Z 05015G22KT 03/M04 A299 RMK A01 T00311041  RH  059%=      5-min Rain = 0
KMC4 110726Z 05014G19KT 03/M04 A299 RMK A01 T00311041  RH  059%=      5-min Rain = 0
KMC4 110727Z 05017G22KT 03/M04 A299 RMK A01 T00311042  RH  059%=      5-min Rain = 0
KMC4 110728Z 05016KT 03/M04 A299 RMK A01 T00301042  RH  059%=      5-min Rain = 0
KMC4 110729Z 05017G22KT 03/M04 A299 RMK A01 T00301042  RH  059%=      5-min Rain = 0
KMC4 110730Z 05014KT 03/M04 A2991 RMK A01 T00291042  RH  059%=      5-min Rain = 0
KMC4 110731Z 04015G20KT 03/M04 A2991 RMK A01 T00291042  RH  059%=      5-min Rain = 0
KMC4 110732Z 05017KT 03/M04 A2991 RMK A01 T00291042  RH  059%=      5-min Rain = 0
KMC4 110733Z 05017G22KT 03/M04 A2991 RMK A01 T00291043  RH  059%=      5-min Rain = 0
KMC4 110734Z 05018KT 03/M04 A2991 RMK A01 T00281043  RH  059%=      5-min Rain = 0
KMC4 110735Z 05017KT 03/M04 A2991 RMK A01 T00281043  RH  059%=      5-min Rain = 0
KMC4 110736Z 05016KT 03/M04 A2991 RMK A01 T00281043  RH  060%=      5-min Rain = 0
KMC4 110737Z 05016KT 03/M04 A2991 RMK A01 T00281043  RH  060%=      5-min Rain = 0
KMC4 110738Z 05015KT 03/M04 A2991 RMK A01 T00281043  RH  060%=      5-min Rain = 0
KMC4 110739Z 05013KT 03/M04 A2991 RMK A01 T00281043  RH  059%=      5-min Rain = 0
KMC4 110740Z 04014KT 03/M04 A2991 RMK A01 T00281043  RH  059%=      5-min Rain = 0
KMC4 110741Z 05015KT 03/M04 A2991 RMK A01 T00281043  RH  059%=      5-min Rain = 0
KMC4 110742Z 05017KT 03/M04 A2991 RMK A01 T00281043  RH  059%=      5-min Rain = 0
KMC4 110743Z 05019KT 03/M04 A2991 RMK A01 T00281044  RH  059%=      5-min Rain = 0
KMC4 110744Z 05015KT 03/M05 A2992 RMK A01 T00271045  RH  059%=      5-min Rain = 0
KMC4 110745Z 05013KT 03/M05 A2992 RMK A01 T00271045  RH  059%=      5-min Rain = 0
KMC4 110746Z 05016G21KT 03/M05 A2992 RMK A01 T00261045  RH  059%=      5-min Rain = 0
KMC4 110747Z 06013G18KT 03/M05 A2992 RMK A01 T00261045  RH  059%=      5-min Rain = 0
KMC4 110748Z 05014KT 03/M05 A2992 RMK A01 T00271045  RH  059%=      5-min Rain = 0
KMC4 110749Z 06012KT 03/M05 A2992 RMK A01 T00261045  RH  059%=      5-min Rain = 0
KMC4 110750Z 05014KT 03/M05 A2992 RMK A01 T00271045  RH  059%=      5-min Rain = 0
KMC4 110751Z 05013KT 03/M05 A2992 RMK A01 T00271045  RH  059%=      5-min Rain = 0
KMC4 110752Z 06014KT 03/M05 A2992 RMK A01 T00271046  RH  059%=      5-min Rain = 0
KMC4 110753Z 05014KT 03/M05 A2992 RMK A01 T00271045  RH  059%=      5-min Rain = 0
KMC4 110754Z 05016KT 03/M05 A2992 RMK A01 T00261046  RH  059%=      5-min Rain = 0
KMC4 110755Z 05012G17KT 03/M05 A2992 RMK A01 T00261046  RH  059%=      5-min Rain = 0
KMC4 110756Z 05013KT 03/M05 A2992 RMK A01 T00261047  RH  059%=      5-min Rain = 0
KMC4 110757Z 05013KT 03/M05 A2992 RMK A01 T00251048  RH  059%=      5-min Rain = 0
KMC4 110758Z 05017G22KT 02/M05 A2992 RMK A01 T00241049  RH  058%=      5-min Rain = 0
KMC4 110759Z 05020KT 02/M05 A2992 RMK A01 T00231050  RH  058%=      5-min Rain = 0
KMC4 110800Z 05018KT 02/M05 A2992 RMK A01 T00221051  RH  058%=      5-min Rain = 0
KMC4 110801Z 05018G24KT 02/M05 A2992 RMK A01 T00221051  RH  059%=      5-min Rain = 0
KMC4 110802Z 05016G23KT 02/M05 A2992 RMK A01 T00221051  RH  059%=      5-min Rain = 0
KMC4 110803Z 05014G19KT 02/M05 A2992 RMK A01 T00211051  RH  059%=      5-min Rain = 0
KMC4 110804Z 05015G22KT 02/M05 A2992 RMK A01 T00211052  RH  059%=      5-min Rain = 0
KMC4 110805Z 06018KT 02/M05 A2992 RMK A01 T00211052  RH  059%=      5-min Rain = 0
KMC4 110806Z 06015KT 02/M05 A2992 RMK A01 T00201052  RH  059%=      5-min Rain = 0
KMC4 110807Z 06014KT 02/M05 A2992 RMK A01 T00201052  RH  059%=      5-min Rain = 0
KMC4 110808Z 06017KT 02/M05 A2992 RMK A01 T00201052  RH  059%=      5-min Rain = 0
KMC4 110809Z 06014KT 02/M05 A2993 RMK A01 T00191053  RH  059%=      5-min Rain = 0
KMC4 110810Z 06014G19KT 02/M05 A2993 RMK A01 T00201053  RH  059%=      5-min Rain = 0
KMC4 110811Z 06016KT 02/M05 A2993 RMK A01 T00201053  RH  059%=      5-min Rain = 0
KMC4 110812Z 05017G22KT 02/M05 A2993 RMK A01 T00191053  RH  059%=      5-min Rain = 0
KMC4 110813Z 05017KT 02/M05 A2993 RMK A01 T00191054  RH  059%=      5-min Rain = 0
KMC4 110814Z 05016G21KT 02/M05 A2993 RMK A01 T00191053  RH  059%=      5-min Rain = 0
KMC4 110815Z 05013G18KT 02/M05 A2993 RMK A01 T00191054  RH  059%=      5-min Rain = 0
KMC4 110816Z 06014KT 02/M05 A2993 RMK A01 T00191053  RH  059%=      5-min Rain = 0
KMC4 110817Z 06017KT 02/M05 A2993 RMK A01 T00201053  RH  059%=      5-min Rain = 0
KMC4 110818Z 06016KT 02/M05 A2993 RMK A01 T00191054  RH  058%=      5-min Rain = 0
KMC4 110819Z 06016KT 02/M05 A2993 RMK A01 T00181054  RH  059%=      5-min Rain = 0
KMC4 110820Z 05013KT 02/M05 A2993 RMK A01 T00181054  RH  059%=      5-min Rain = 0
KMC4 110821Z 05015KT 02/M06 A2993 RMK A01 T00181055  RH  059%=      5-min Rain = 0
KMC4 110822Z 05012G18KT 02/M06 A2994 RMK A01 T00181055  RH  058%=      5-min Rain = 0
KMC4 110823Z 06015KT 02/M06 A2993 RMK A01 T00181055  RH  058%=      5-min Rain = 0
KMC4 110824Z 06015KT 02/M06 A2993 RMK A01 T00181055  RH  058%=      5-min Rain = 0
KMC4 110825Z 06015G21KT 02/M06 A2993 RMK A01 T00181055  RH  058%=      5-min Rain = 0
KMC4 110826Z 06016KT 02/M06 A2993 RMK A01 T00181055  RH  058%=      5-min Rain = 0
KMC4 110827Z 06015KT 02/M06 A2993 RMK A01 T00171056  RH  058%=      5-min Rain = 0
KMC4 110828Z 06015KT 02/M06 A2993 RMK A01 T00171056  RH  058%=      5-min Rain = 0
KMC4 110829Z 06016G22KT 02/M06 A2993 RMK A01 T00171056  RH  058%=      5-min Rain = 0
KMC4 110830Z 06022G28KT 02/M06 A2993 RMK A01 T00161057  RH  058%=      5-min Rain = 0
KMC4 110831Z 05019G24KT 02/M06 A2993 RMK A01 T00161058  RH  058%=      5-min Rain = 0
KMC4 110832Z 06016KT 02/M06 A2993 RMK A01 T00151058  RH  058%=      5-min Rain = 0
KMC4 110833Z 06015G20KT 02/M06 A2993 RMK A01 T00151058  RH  058%=      5-min Rain = 0
KMC4 110834Z 06019G26KT 02/M06 A2993 RMK A01 T00151058  RH  058%=      5-min Rain = 0
KMC4 110835Z 06020KT 02/M06 A2993 RMK A01 T00151059  RH  058%=      5-min Rain = 0
KMC4 110836Z 06018G24KT 02/M06 A2993 RMK A01 T00151059  RH  058%=      5-min Rain = 0
KMC4 110837Z 07019G25KT 02/M06 A2993 RMK A01 T00151059  RH  058%=      5-min Rain = 0
KMC4 110838Z 06015G20KT 02/M06 A2993 RMK A01 T00151059  RH  058%=      5-min Rain = 0
KMC4 110839Z 06018G27KT 02/M06 A2993 RMK A01 T00151059  RH  058%=      5-min Rain = 0
KMC4 110840Z 06018G25KT 02/M06 A2993 RMK A01 T00151060  RH  057%=      5-min Rain = 0
KMC4 110841Z 07014KT 02/M06 A2993 RMK A01 T00151060  RH  058%=      5-min Rain = 0
KMC4 110842Z 07017G22KT 02/M06 A2993 RMK A01 T00151060  RH  057%=      5-min Rain = 0
KMC4 110843Z 06016KT 02/M06 A2993 RMK A01 T00151060  RH  057%=      5-min Rain = 0
KMC4 110844Z 06016KT 02/M06 A2993 RMK A01 T00151061  RH  057%=      5-min Rain = 0
KMC4 110845Z 07016KT 02/M06 A2993 RMK A01 T00151060  RH  057%=      5-min Rain = 0
KMC4 110846Z 07014KT 02/M06 A2992 RMK A01 T00161060  RH  057%=      5-min Rain = 0
KMC4 110847Z 07016KT 02/M06 A2992 RMK A01 T00161060  RH  057%=      5-min Rain = 0
KMC4 110848Z 07017G24KT 02/M06 A2992 RMK A01 T00161060  RH  057%=      5-min Rain = 0
KMC4 110849Z 07017KT 02/M06 A2992 RMK A01 T00161060  RH  057%=      5-min Rain = 0
KMC4 110850Z 06019KT 02/M06 A2992 RMK A01 T00161060  RH  057%=      5-min Rain = 0
KMC4 110851Z 08020KT 02/M06 A2992 RMK A01 T00151061  RH  057%=      5-min Rain = 0
KMC4 110852Z 07017KT 01/M06 A2992 RMK A01 T00141061  RH  057%=      5-min Rain = 0
KMC4 110853Z 07017G23KT 01/M06 A2992 RMK A01 T00141061  RH  057%=      5-min Rain = 0
KMC4 110854Z 07015KT 02/M06 A2992 RMK A01 T00151061  RH  057%=      5-min Rain = 0
KMC4 110855Z 07019KT 01/M06 A2992 RMK A01 T00141061  RH  057%=      5-min Rain = 0
KMC4 110856Z 07016G21KT 02/M06 A2992 RMK A01 T00151061  RH  057%=      5-min Rain = 0
KMC4 110857Z 07017KT 01/M06 A2992 RMK A01 T00141061  RH  057%=      5-min Rain = 0
KMC4 110858Z 07017G22KT 02/M06 A2992 RMK A01 T00151062  RH  057%=      5-min Rain = 0
KMC4 110859Z 07016KT 02/M06 A2992 RMK A01 T00151062  RH  057%=      5-min Rain = 0
KMC4 110900Z 07015KT 02/M06 A2992 RMK A01 T00151062  RH  057%=      5-min Rain = 0
KMC4 110901Z 07015KT 01/M06 A2992 RMK A01 T00141062  RH  057%=      5-min Rain = 0
KMC4 110902Z 06013KT 01/M06 A2992 RMK A01 T00141062  RH  057%=      5-min Rain = 0
KMC4 110903Z 07019KT 02/M06 A2992 RMK A01 T00151062  RH  057%=      5-min Rain = 0
KMC4 110904Z 07017G25KT 01/M06 A2992 RMK A01 T00141062  RH  057%=      5-min Rain = 0
KMC4 110905Z 06019KT 01/M06 A2992 RMK A01 T00141062  RH  057%=      5-min Rain = 0
KMC4 110906Z 06019G25KT 01/M06 A2992 RMK A01 T00141062  RH  057%=      5-min Rain = 0
KMC4 110907Z 07018KT 01/M06 A2992 RMK A01 T00131062  RH  057%=      5-min Rain = 0
KMC4 110908Z 07017G23KT 01/M06 A2992 RMK A01 T00131062  RH  057%=      5-min Rain = 0
KMC4 110909Z 07018KT 01/M06 A2992 RMK A01 T00131062  RH  057%=      5-min Rain = 0
KMC4 110910Z 07020G26KT 01/M06 A2992 RMK A01 T00131062  RH  057%=      5-min Rain = 0
KMC4 110911Z 07017KT 01/M06 A2992 RMK A01 T00141062  RH  057%=      5-min Rain = 0
KMC4 110912Z 07014KT 01/M06 A2992 RMK A01 T00131063  RH  057%=      5-min Rain = 0
KMC4 110913Z 07014G20KT 01/M06 A2993 RMK A01 T00131063  RH  057%=      5-min Rain = 0
KMC4 110914Z 07015KT 01/M06 A2993 RMK A01 T00131063  RH  057%=      5-min Rain = 0
KMC4 110915Z 06014KT 01/M06 A2993 RMK A01 T00131063  RH  057%=      5-min Rain = 0
KMC4 110916Z 07015KT 01/M06 A2993 RMK A01 T00131063  RH  057%=      5-min Rain = 0
KMC4 110917Z 06014G22KT 01/M06 A2993 RMK A01 T00131063  RH  057%=      5-min Rain = 0
KMC4 110918Z 06018KT 01/M06 A2993 RMK A01 T00141063  RH  057%=      5-min Rain = 0
KMC4 110919Z 06016G21KT 01/M06 A2993 RMK A01 T00141063  RH  057%=      5-min Rain = 0
KMC4 110920Z 07017KT 01/M06 A2993 RMK A01 T00131063  RH  057%=      5-min Rain = 0
KMC4 110921Z 05013KT 01/M06 A2993 RMK A01 T00141063  RH  057%=      5-min Rain = 0
KMC4 110922Z 06020G26KT 01/M06 A2993 RMK A01 T00131063  RH  057%=      5-min Rain = 0
KMC4 110923Z 06019G24KT 01/M06 A2993 RMK A01 T00131064  RH  057%=      5-min Rain = 0
KMC4 110924Z 06020G26KT 01/M07 A2993 RMK A01 T00121065  RH  056%=      5-min Rain = 0
KMC4 110925Z 06018KT 01/M07 A2994 RMK A01 T00111066  RH  056%=      5-min Rain = 0
KMC4 110926Z 05018KT 01/M07 A2994 RMK A01 T00111067  RH  056%=      5-min Rain = 0
KMC4 110927Z 06015KT 01/M07 A2994 RMK A01 T00101069  RH  056%=      5-min Rain = 0
KMC4 110928Z 06017G23KT 01/M07 A2994 RMK A01 T00101069  RH  056%=      5-min Rain = 0
KMC4 110929Z 05014G21KT 01/M07 A2993 RMK A01 T00091069  RH  056%=      5-min Rain = 0
KMC4 110930Z 06015KT 01/M07 A2994 RMK A01 T00091069  RH  056%=      5-min Rain = 0
KMC4 110931Z 05017KT 01/M07 A2994 RMK A01 T00091068  RH  056%=      5-min Rain = 0
KMC4 110932Z 06019KT 01/M07 A2993 RMK A01 T00091068  RH  056%=      5-min Rain = 0
KMC4 110933Z 06019KT 01/M07 A2993 RMK A01 T00091068  RH  056%=      5-min Rain = 0
KMC4 110934Z 07017KT 01/M07 A2994 RMK A01 T00091068  RH  057%=      5-min Rain = 0
KMC4 110935Z 07014KT 01/M07 A2994 RMK A01 T00081068  RH  057%=      5-min Rain = 0
KMC4 110936Z 06013G23KT 01/M07 A2994 RMK A01 T00091068  RH  057%=      5-min Rain = 0
KMC4 110937Z 06018KT 01/M07 A2994 RMK A01 T00081068  RH  057%=      5-min Rain = 0
KMC4 110938Z 06014KT 01/M07 A2994 RMK A01 T00091068  RH  057%=      5-min Rain = 0
KMC4 110939Z 05017KT 01/M07 A2994 RMK A01 T00081068  RH  056%=      5-min Rain = 0
KMC4 110940Z 06018G23KT 01/M07 A2994 RMK A01 T00081070  RH  056%=      5-min Rain = 0
KMC4 110941Z 05017G23KT 01/M07 A2995 RMK A01 T00071073  RH  055%=      5-min Rain = 0
KMC4 110942Z 05017G23KT 01/M08 A2995 RMK A01 T00051075  RH  055%=      5-min Rain = 0
KMC4 110943Z 06022G27KT 01/M08 A2995 RMK A01 T00051076  RH  055%=      5-min Rain = 0
KMC4 110944Z 05021G26KT 00/M08 A2995 RMK A01 T00041077  RH  055%=      5-min Rain = 0
KMC4 110945Z 05017KT 00/M08 A2995 RMK A01 T00031077  RH  055%=      5-min Rain = 0
KMC4 110946Z 05015G22KT 00/M08 A2995 RMK A01 T00031077  RH  055%=      5-min Rain = 0
KMC4 110947Z 05018G26KT 00/M08 A2996 RMK A01 T00031077  RH  055%=      5-min Rain = 0
KMC4 110948Z 05019KT 00/M08 A2996 RMK A01 T00031076  RH  055%=      5-min Rain = 0
KMC4 110949Z 06020G25KT 00/M08 A2996 RMK A01 T00031075  RH  056%=      5-min Rain = 0
KMC4 110950Z 06017G22KT 00/M08 A2996 RMK A01 T00021075  RH  056%=      5-min Rain = 0
KMC4 110951Z 06021G26KT 00/M07 A2995 RMK A01 T00021074  RH  056%=      5-min Rain = 0
KMC4 110952Z 06014G22KT 00/M07 A2996 RMK A01 T00011073  RH  057%=      5-min Rain = 0
KMC4 110953Z 06018G24KT 00/M07 A2996 RMK A01 T00011073  RH  057%=      5-min Rain = 0
KMC4 110954Z 05019G26KT 00/M08 A2996 RMK A01 T00011075  RH  057%=      5-min Rain = 0
KMC4 110955Z 06018G25KT 00/M08 A2996 RMK A01 T00011075  RH  057%=      5-min Rain = 0
KMC4 110956Z 06017KT 00/07 A2996 RMK A01 T00000-73  RH  058%=      5-min Rain = 0
KMC4 110957Z 05016KT 00/07 A2996 RMK A01 T00-00-72  RH  059%=      5-min Rain = 0
KMC4 110958Z 06017KT M00/M07 A2996 RMK A01 T10011072  RH  059%=      5-min Rain = 0
KMC4 110959Z 05017KT M00/M07 A2996 RMK A01 T10011073  RH  058%=      5-min Rain = 0
KMC4 111000Z 04019G24KT M00/M08 A2996 RMK A01 T10011076  RH  057%=      5-min Rain = 0
KMC4 111001Z 05017G22KT M00/M08 A2997 RMK A01 T10011077  RH  057%=      5-min Rain = 0
KMC4 111002Z 05018G24KT M00/M08 A2997 RMK A01 T10021075  RH  058%=      5-min Rain = 0
KMC4 111003Z 05020G27KT M00/M07 A2997 RMK A01 T10031072  RH  059%=      5-min Rain = 0
KMC4 111004Z 05021G28KT M01/M07 A2996 RMK A01 T10051069  RH  062%=      5-min Rain = 0
KMC4 111005Z 05022G27KT M01/M07 A2996 RMK A01 T10061068  RH  063%=      5-min Rain = 0
KMC4 111006Z 05017G23KT M01/M07 A2997 RMK A01 T10081069  RH  063%=      5-min Rain = 0
KMC4 111007Z 05019G24KT M01/M07 A2997 RMK A01 T10081070  RH  063%=      5-min Rain = 0
KMC4 111008Z 05016G22KT M01/M07 A2997 RMK A01 T10081070  RH  063%=      5-min Rain = 0
KMC4 111009Z 06014G22KT M01/M07 A2997 RMK A01 T10081071  RH  063%=      5-min Rain = 0
KMC4 111010Z 06021G28KT M01/M07 A2997 RMK A01 T10081073  RH  062%=      5-min Rain = 0
KMC4 111011Z 06021G29KT M01/M07 A2997 RMK A01 T10081074  RH  061%=      5-min Rain = 0
KMC4 111012Z 06021G28KT M01/M08 A2998 RMK A01 T10081076  RH  060%=      5-min Rain = 0
KMC4 111013Z 05019G24KT M01/M08 A2998 RMK A01 T10081076  RH  060%=      5-min Rain = 0
KMC4 111014Z 06019G26KT M01/M08 A2998 RMK A01 T10081076  RH  060%=      5-min Rain = 0
KMC4 111015Z 06016G21KT M01/M08 A2998 RMK A01 T10081076  RH  060%=      5-min Rain = 0
KMC4 111016Z 06017KT M01/M08 A2998 RMK A01 T10081076  RH  060%=      5-min Rain = 0
KMC4 111017Z 06017G22KT M01/M08 A2999 RMK A01 T10091076  RH  060%=      5-min Rain = 0
KMC4 111018Z 06019KT M01/M08 A2999 RMK A01 T10081075  RH  061%=      5-min Rain = 0
KMC4 111019Z 06018G23KT M01/M07 A2999 RMK A01 T10091074  RH  061%=      5-min Rain = 0
KMC4 111020Z 06019G24KT M01/M07 A2998 RMK A01 T10091074  RH  061%=      5-min Rain = 0
KMC4 111021Z 06019KT M01/M07 A2999 RMK A01 T10101074  RH  062%=      5-min Rain = 0
KMC4 111022Z 06017KT M01/M07 A2999 RMK A01 T10101074  RH  062%=      5-min Rain = 0
KMC4 111023Z 05016KT M01/M08 A2999 RMK A01 T10101075  RH  061%=      5-min Rain = 0
KMC4 111024Z 06016G21KT M01/M08 A2999 RMK A01 T10101076  RH  061%=      5-min Rain = 0
KMC4 111025Z 06013KT M01/M08 A2999 RMK A01 T10101077  RH  061%=      5-min Rain = 0
KMC4 111026Z 06017KT M01/M08 A2999 RMK A01 T10101076  RH  061%=      5-min Rain = 0
KMC4 111027Z 06017G22KT M01/M08 A2999 RMK A01 T10101077  RH  060%=      5-min Rain = 0
KMC4 111028Z 06013G18KT M01/M08 A2999 RMK A01 T10101077  RH  060%=      5-min Rain = 0
KMC4 111029Z 06012KT M01/M08 A2999 RMK A01 T10101076  RH  061%=      5-min Rain = 0
KMC4 111030Z 07015KT M01/M08 A2999 RMK A01 T10101075  RH  061%=      5-min Rain = 0
KMC4 111031Z 07014KT M01/M07 A2999 RMK A01 T10101074  RH  062%=      5-min Rain = 0
KMC4 111032Z 07016G22KT M01/M07 A2999 RMK A01 T10101074  RH  062%=      5-min Rain = 0
KMC4 111033Z 06017G22KT M01/M08 A2999 RMK A01 T10111075  RH  062%=      5-min Rain = 0
KMC4 111034Z 06013KT M01/M08 A2999 RMK A01 T10111075  RH  062%=      5-min Rain = 0
KMC4 111035Z 06013KT M01/M08 A30 RMK A01 T10111075  RH  062%=      5-min Rain = 0
KMC4 111036Z 05015KT M01/M08 A30 RMK A01 T10101075  RH  062%=      5-min Rain = 0
KMC4 111037Z 06017KT M01/M08 A30 RMK A01 T10111075  RH  062%=      5-min Rain = 0
KMC4 111038Z 06016KT M01/M08 A30 RMK A01 T10111076  RH  062%=      5-min Rain = 0
KMC4 111039Z 06017G25KT M01/M08 A30 RMK A01 T10121077  RH  061%=      5-min Rain = 0
KMC4 111040Z 06019G25KT M01/M08 A30 RMK A01 T10131078  RH  061%=      5-min Rain = 0
KMC4 111041Z 06015G22KT M01/M08 A30 RMK A01 T10131078  RH  061%=      5-min Rain = 0
KMC4 111042Z 05016G21KT M01/M08 A30 RMK A01 T10131077  RH  062%=      5-min Rain = 0
KMC4 111043Z 05016G21KT M01/M08 A30 RMK A01 T10131078  RH  061%=      5-min Rain = 0
KMC4 111044Z 05014G20KT M01/M08 A30 RMK A01 T10131078  RH  061%=      5-min Rain = 0
KMC4 111045Z 06019G26KT M01/M08 A30 RMK A01 T10131078  RH  061%=      5-min Rain = 0
KMC4 111046Z 05019KT M01/M08 A30 RMK A01 T10141079  RH  061%=      5-min Rain = 0
KMC4 111047Z 05020G25KT M02/M08 A30 RMK A01 T10151080  RH  061%=      5-min Rain = 0
KMC4 111048Z 05016G21KT M02/M08 A30 RMK A01 T10151080  RH  061%=      5-min Rain = 0
KMC4 111049Z 05014G19KT M02/M08 A30 RMK A01 T10151080  RH  061%=      5-min Rain = 0
KMC4 111050Z 05019KT M02/M08 A30 RMK A01 T10151080  RH  061%=      5-min Rain = 0
KMC4 111051Z 05018G23KT M02/M08 A30 RMK A01 T10161080  RH  062%=      5-min Rain = 0
KMC4 111052Z 05018KT M02/M08 A30 RMK A01 T10171078  RH  063%=      5-min Rain = 0
KMC4 111053Z 05018KT M02/M08 A3001 RMK A01 T10181076  RH  064%=      5-min Rain = 0
KMC4 111054Z 05019G24KT M02/M08 A3001 RMK A01 T10191076  RH  065%=      5-min Rain = 0
KMC4 111055Z 05015KT M02/M08 A3001 RMK A01 T10191076  RH  065%=      5-min Rain = 0
KMC4 111056Z 05015KT M02/M08 A3002 RMK A01 T10201076  RH  066%=      5-min Rain = 0
KMC4 111057Z 05014G20KT M02/M08 A3002 RMK A01 T10201076  RH  066%=      5-min Rain = 0
KMC4 111058Z 06020KT M02/M08 A3002 RMK A01 T10201076  RH  065%=      5-min Rain = 0
KMC4 111059Z 06014G19KT M02/M08 A3002 RMK A01 T10201077  RH  065%=      5-min Rain = 0
KMC4 111100Z 06015KT M02/M08 A3002 RMK A01 T10201076  RH  066%=      5-min Rain = 0
KMC4 111101Z 06015KT M02/M08 A3002 RMK A01 T10201076  RH  066%=      5-min Rain = 0
KMC4 111102Z 06012KT M02/M08 A3002 RMK A01 T10211075  RH  066%=      5-min Rain = 0
KMC4 111103Z 06016G23KT M02/M08 A3002 RMK A01 T10211075  RH  066%=      5-min Rain = 0
KMC4 111104Z 06018KT M02/M08 A3002 RMK A01 T10201075  RH  066%=      5-min Rain = 0
KMC4 111105Z 06016KT M02/M08 A3002 RMK A01 T10211076  RH  066%=      5-min Rain = 0
KMC4 111106Z 06012KT M02/M08 A3003 RMK A01 T10211075  RH  066%=      5-min Rain = 0
KMC4 111107Z 06015KT M02/M08 A3003 RMK A01 T10211075  RH  066%=      5-min Rain = 0
KMC4 111108Z 06013KT M02/M08 A3003 RMK A01 T10211075  RH  066%=      5-min Rain = 0
KMC4 111109Z 06011KT M02/M08 A3003 RMK A01 T10211075  RH  066%=      5-min Rain = 0
KMC4 111110Z 06014KT M02/M08 A3003 RMK A01 T10211075  RH  066%=      5-min Rain = 0
KMC4 111111Z 06012KT M02/M08 A3004 RMK A01 T10211076  RH  066%=      5-min Rain = 0
KMC4 111112Z 05014KT M02/M08 A3004 RMK A01 T10211077  RH  065%=      5-min Rain = 0
KMC4 111113Z 03013KT M02/M08 A3005 RMK A01 T10211078  RH  065%=      5-min Rain = 0
KMC4 111114Z 03013KT M02/M08 A3005 RMK A01 T10201080  RH  064%=      5-min Rain = 0
KMC4 111115Z 04016KT M02/M08 A3006 RMK A01 T10201080  RH  064%=      5-min Rain = 0
KMC4 111116Z 04013KT M02/M08 A3006 RMK A01 T10211080  RH  064%=      5-min Rain = 0
KMC4 111117Z 05012KT M02/M08 A3007 RMK A01 T10221080  RH  065%=      5-min Rain = 0
KMC4 111118Z 04013KT M02/M08 A3007 RMK A01 T10221079  RH  065%=      5-min Rain = 0
KMC4 111119Z 04012G17KT M02/M08 A3007 RMK A01 T10221077  RH  066%=      5-min Rain = 0
KMC4 111120Z 05013KT M02/M08 A3008 RMK A01 T10231076  RH  067%=      5-min Rain = 0
KMC4 111121Z 04010KT M02/M08 A3008 RMK A01 T10241075  RH  068%=      5-min Rain = 0
KMC4 111122Z 05008KT M02/M08 A3008 RMK A01 T10241076  RH  068%=      5-min Rain = 0
KMC4 111123Z 05009KT M02/M08 A3008 RMK A01 T10241076  RH  067%=      5-min Rain = 0
KMC4 111124Z 03008KT M02/M08 A3008 RMK A01 T10241077  RH  067%=      5-min Rain = 0
KMC4 111125Z 03009KT M02/M08 A3008 RMK A01 T10231077  RH  066%=      5-min Rain = 0
KMC4 111126Z 04014KT M02/M08 A3008 RMK A01 T10231077  RH  066%=      5-min Rain = 0
KMC4 111127Z 04015KT M02/M08 A3008 RMK A01 T10241078  RH  066%=      5-min Rain = 0
KMC4 111128Z 03014KT M03/M08 A3008 RMK A01 T10261078  RH  067%=      5-min Rain = 0
KMC4 111129Z 03011KT M03/M08 A3008 RMK A01 T10271077  RH  068%=      5-min Rain = 0
KMC4 111130Z 03012KT M03/M08 A3008 RMK A01 T10271077  RH  068%=      5-min Rain = 0
KMC4 111131Z 04013KT M03/M08 A3008 RMK A01 T10271077  RH  068%=      5-min Rain = 0
KMC4 111132Z 05012G17KT M03/M08 A3008 RMK A01 T10271078  RH  068%=      5-min Rain = 0
KMC4 111133Z 04013KT M03/M08 A3008 RMK A01 T10281078  RH  068%=      5-min Rain = 0
KMC4 111134Z 03013KT M03/M08 A3008 RMK A01 T10281078  RH  068%=      5-min Rain = 0
KMC4 111135Z 03010KT M03/M08 A3008 RMK A01 T10281078  RH  068%=      5-min Rain = 0
KMC4 111136Z 03010G15KT M03/M08 A3009 RMK A01 T10281078  RH  068%=      5-min Rain = 0
KMC4 111137Z 03015KT M03/M08 A3009 RMK A01 T10271078  RH  068%=      5-min Rain = 0
KMC4 111138Z 03013KT M03/M08 A3009 RMK A01 T10281079  RH  068%=      5-min Rain = 0
KMC4 111139Z 05014KT M03/M08 A3008 RMK A01 T10291079  RH  069%=      5-min Rain = 0
KMC4 111140Z 04013KT M03/M08 A3009 RMK A01 T10301079  RH  069%=      5-min Rain = 0
KMC4 111141Z 04012KT M03/M08 A3009 RMK A01 T10301079  RH  069%=      5-min Rain = 0
KMC4 111142Z 03013KT M03/M08 A3009 RMK A01 T10311079  RH  069%=      5-min Rain = 0
KMC4 111143Z 03013KT M03/M08 A301 RMK A01 T10301079  RH  069%=      5-min Rain = 0
KMC4 111144Z 03013KT M03/M08 A301 RMK A01 T10301079  RH  069%=      5-min Rain = 0
KMC4 111145Z 03011KT M03/M08 A301 RMK A01 T10311080  RH  069%=      5-min Rain = 0
KMC4 111146Z 03013KT M03/M08 A301 RMK A01 T10311080  RH  069%=      5-min Rain = 0
KMC4 111147Z 03011KT M03/M08 A301 RMK A01 T10311080  RH  069%=      5-min Rain = 0
KMC4 111148Z 04011KT M03/M08 A301 RMK A01 T10311081  RH  069%=      5-min Rain = 0
KMC4 111149Z 04011KT M03/M08 A301 RMK A01 T10311080  RH  069%=      5-min Rain = 0
KMC4 111150Z 04012KT M03/M08 A301 RMK A01 T10311081  RH  068%=      5-min Rain = 0
KMC4 111151Z 02013KT M03/M08 A301 RMK A01 T10311081  RH  068%=      5-min Rain = 0
KMC4 111152Z 02016KT M03/M08 A301 RMK A01 T10321080  RH  069%=      5-min Rain = 0
KMC4 111153Z 03012KT M03/M08 A301 RMK A01 T10331079  RH  070%=      5-min Rain = 0
KMC4 111154Z 04011KT M03/M08 A301 RMK A01 T10331079  RH  071%=      5-min Rain = 0
KMC4 111155Z 04014KT M03/M08 A301 RMK A01 T10331079  RH  070%=      5-min Rain = 0
KMC4 111156Z 03013KT M03/M08 A301 RMK A01 T10331077  RH  071%=      5-min Rain = 0
KMC4 111157Z 03019KT M03/M08 A301 RMK A01 T10341075  RH  073%=      5-min Rain = 0
KMC4 111158Z 03016KT M04/M07 A301 RMK A01 T10361074  RH  075%=      5-min Rain = 0
KMC4 111159Z 03016KT M04/M07 A301 RMK A01 T10381073  RH  076%=      5-min Rain = 0
KMC4 111200Z 03014KT M04/M07 A3011 RMK A01 T10381072  RH  077%=      5-min Rain = 0
KMC4 111201Z 03014KT M04/M07 A3011 RMK A01 T10381071  RH  078%=      5-min Rain = 0
KMC4 111202Z 03017KT M04/M07 A3011 RMK A01 T10381071  RH  078%=      5-min Rain = 0
KMC4 111203Z 03016KT M04/M07 A301 RMK A01 T10391072  RH  078%=      5-min Rain = 0
KMC4 111204Z 03014KT M04/M07 A3011 RMK A01 T10401071  RH  079%=      5-min Rain = 0
KMC4 111205Z 03013KT M04/M07 A3011 RMK A01 T10401071  RH  079%=      5-min Rain = 0
KMC4 111206Z 03012KT M04/M07 A3011 RMK A01 T10401070  RH  079%=      5-min Rain = 0
KMC4 111207Z 02011KT M04/M07 A3011 RMK A01 T10401070  RH  079%=      5-min Rain = 0
KMC4 111208Z 03011KT M04/M07 A3012 RMK A01 T10401071  RH  079%=      5-min Rain = 0
KMC4 111209Z 03009KT M04/M07 A3012 RMK A01 T10391071  RH  079%=      5-min Rain = 0
KMC4 111210Z 03012KT M04/M07 A3012 RMK A01 T10391071  RH  078%=      5-min Rain = 0
KMC4 111211Z 04014G19KT M04/M07 A3012 RMK A01 T10391072  RH  078%=      5-min Rain = 0
KMC4 111212Z 03014KT M04/M07 A3012 RMK A01 T10391073  RH  077%=      5-min Rain = 0
KMC4 111213Z 04010KT M04/M07 A3012 RMK A01 T10391073  RH  077%=      5-min Rain = 0
KMC4 111214Z 03012KT M04/M07 A3012 RMK A01 T10401074  RH  077%=      5-min Rain = 0
KMC4 111215Z 03011KT M04/M08 A3012 RMK A01 T10401075  RH  076%=      5-min Rain = 0
KMC4 111216Z 03010G15KT M04/M08 A3012 RMK A01 T10391075  RH  076%=      5-min Rain = 0
KMC4 111217Z 03011KT M04/M08 A3012 RMK A01 T10391076  RH  075%=      5-min Rain = 0
KMC4 111218Z 03011KT M04/M08 A3012 RMK A01 T10381077  RH  075%=      5-min Rain = 0
KMC4 111219Z 02009KT M04/M08 A3012 RMK A01 T10381077  RH  074%=      5-min Rain = 0
KMC4 111220Z 02010KT M04/M08 A3012 RMK A01 T10371077  RH  074%=      5-min Rain = 0
KMC4 111221Z 02010KT M04/M08 A3012 RMK A01 T10371078  RH  073%=      5-min Rain = 0
KMC4 111222Z 03011KT M04/M08 A3012 RMK A01 T10371078  RH  073%=      5-min Rain = 0
KMC4 111223Z 02010KT M04/M08 A3012 RMK A01 T10361079  RH  072%=      5-min Rain = 0
KMC4 111224Z 03008KT M04/M08 A3012 RMK A01 T10361080  RH  072%=      5-min Rain = 0
KMC4 111225Z 01011KT M04/M08 A3012 RMK A01 T10361080  RH  071%=      5-min Rain = 0
KMC4 111226Z 02012KT M04/M08 A3012 RMK A01 T10361080  RH  071%=      5-min Rain = 0
KMC4 111227Z 02012KT M04/M08 A3012 RMK A01 T10361080  RH  072%=      5-min Rain = 0
KMC4 111228Z 02012KT M04/M08 A3012 RMK A01 T10361079  RH  072%=      5-min Rain = 0
KMC4 111229Z 01010KT M04/M08 A3012 RMK A01 T10361079  RH  072%=      5-min Rain = 0
KMC4 111230Z 02009KT M04/M08 A3012 RMK A01 T10361078  RH  073%=      5-min Rain = 0
KMC4 111231Z 01012KT M04/M08 A3012 RMK A01 T10361078  RH  073%=      5-min Rain = 0
KMC4 111232Z 01012G19KT M04/M08 A3013 RMK A01 T10371078  RH  073%=      5-min Rain = 0
KMC4 111233Z 01013KT M04/M08 A3013 RMK A01 T10381077  RH  074%=      5-min Rain = 0
KMC4 111234Z 01013G18KT M04/M08 A3013 RMK A01 T10391076  RH  075%=      5-min Rain = 0
KMC4 111235Z 01014KT M04/M08 A3013 RMK A01 T10391076  RH  075%=      5-min Rain = 0
KMC4 111236Z 01012KT M04/M08 A3013 RMK A01 T10391076  RH  076%=      5-min Rain = 0
KMC4 111237Z 01012KT M04/M08 A3013 RMK A01 T10401077  RH  076%=      5-min Rain = 0
KMC4 111238Z 02009KT M04/M08 A3013 RMK A01 T10391076  RH  075%=      5-min Rain = 0
KMC4 111239Z 01008KT M04/M08 A3014 RMK A01 T10391077  RH  075%=      5-min Rain = 0
KMC4 111240Z 01010KT M04/M08 A3014 RMK A01 T10391077  RH  075%=      5-min Rain = 0
KMC4 111241Z 01007KT M04/M08 A3014 RMK A01 T10391077  RH  075%=      5-min Rain = 0
KMC4 111242Z 01011KT M04/M08 A3014 RMK A01 T10381076  RH  075%=      5-min Rain = 0
KMC4 111243Z 01010KT M04/M08 A3014 RMK A01 T10381077  RH  075%=      5-min Rain = 0
KMC4 111244Z 36008KT M04/M08 A3015 RMK A01 T10381076  RH  075%=      5-min Rain = 0
KMC4 111245Z 02009KT M04/M08 A3014 RMK A01 T10381076  RH  075%=      5-min Rain = 0
KMC4 111246Z 02009KT M04/M08 A3015 RMK A01 T10391076  RH  076%=      5-min Rain = 0
KMC4 111247Z 02008KT M04/M08 A3015 RMK A01 T10391075  RH  076%=      5-min Rain = 0
KMC4 111248Z 03010KT M04/M08 A3015 RMK A01 T10391075  RH  076%=      5-min Rain = 0
KMC4 111249Z 02013KT M04/M08 A3015 RMK A01 T10391075  RH  076%=      5-min Rain = 0
KMC4 111250Z 02014KT M04/M07 A3015 RMK A01 T10391074  RH  077%=      5-min Rain = 0
KMC4 111251Z 02011G16KT M04/M07 A3015 RMK A01 T10401074  RH  077%=      5-min Rain = 0
KMC4 111252Z 02013KT M04/M07 A3015 RMK A01 T10401073  RH  078%=      5-min Rain = 0
KMC4 111253Z 01012KT M04/M07 A3015 RMK A01 T10401073  RH  078%=      5-min Rain = 0
KMC4 111254Z 01011KT M04/M07 A3016 RMK A01 T10401072  RH  078%=      5-min Rain = 0
KMC4 111255Z 01006KT M04/M07 A3016 RMK A01 T10401072  RH  079%=      5-min Rain = 0
KMC4 111256Z 03009KT M04/M07 A3016 RMK A01 T10401071  RH  079%=      5-min Rain = 0
KMC4 111257Z 03008KT M04/M07 A3016 RMK A01 T10401071  RH  079%=      5-min Rain = 0
KMC4 111258Z 03009KT M04/M07 A3016 RMK A01 T10401071  RH  079%=      5-min Rain = 0
KMC4 111259Z 03008KT M04/M07 A3017 RMK A01 T10401071  RH  079%=      5-min Rain = 0
KMC4 111300Z 04012KT M04/M07 A3017 RMK A01 T10391071  RH  079%=      5-min Rain = 0
KMC4 111301Z 03012KT M04/M07 A3017 RMK A01 T10401072  RH  078%=      5-min Rain = 0
KMC4 111302Z 02010KT M04/M07 A3017 RMK A01 T10401072  RH  078%=      5-min Rain = 0
KMC4 111303Z 03008KT M04/M07 A3017 RMK A01 T10401072  RH  079%=      5-min Rain = 0
KMC4 111304Z 02010KT M04/M07 A3017 RMK A01 T10401071  RH  079%=      5-min Rain = 0
KMC4 111305Z 01011KT M04/M07 A3017 RMK A01 T10401072  RH  078%=      5-min Rain = 0
KMC4 111306Z 01008KT M04/M07 A3018 RMK A01 T10401071  RH  079%=      5-min Rain = 0
KMC4 111307Z 01007KT M04/M07 A3018 RMK A01 T10401071  RH  079%=      5-min Rain = 0
KMC4 111308Z 01008KT M04/M07 A3018 RMK A01 T10401072  RH  079%=      5-min Rain = 0
KMC4 111309Z 00006KT M04/M07 A3018 RMK A01 T10401071  RH  079%=      5-min Rain = 0
KMC4 111310Z 35006KT M04/M07 A3018 RMK A01 T10411071  RH  079%=      5-min Rain = 0
KMC4 111311Z 34009KT M04/M07 A3018 RMK A01 T10401071  RH  079%=      5-min Rain = 0
KMC4 111312Z 01011KT M04/M07 A3018 RMK A01 T10401071  RH  079%=      5-min Rain = 0
KMC4 111313Z 36008KT M04/M07 A3019 RMK A01 T10411072  RH  079%=      5-min Rain = 0
KMC4 111314Z 01008KT M04/M07 A3019 RMK A01 T10411071  RH  080%=      5-min Rain = 0
KMC4 111315Z 36008KT M04/M07 A3019 RMK A01 T10411071  RH  080%=      5-min Rain = 0
KMC4 111316Z 36007KT M04/M07 A3019 RMK A01 T10411071  RH  080%=      5-min Rain = 0
KMC4 111317Z 01008KT M04/M07 A3019 RMK A01 T10411071  RH  080%=      5-min Rain = 0
KMC4 111318Z 00009KT M04/M07 A3019 RMK A01 T10411071  RH  080%=      5-min Rain = 0
KMC4 111319Z 35008KT M04/M07 A3019 RMK A01 T10411071  RH  080%=      5-min Rain = 0
KMC4 111320Z 35008KT M04/M07 A302 RMK A01 T10421071  RH  080%=      5-min Rain = 0
KMC4 111321Z 35008KT M04/M07 A302 RMK A01 T10421071  RH  080%=      5-min Rain = 0
KMC4 111322Z 35007KT M04/M07 A302 RMK A01 T10421070  RH  081%=      5-min Rain = 0
KMC4 111323Z 35007KT M04/M07 A302 RMK A01 T10421070  RH  081%=      5-min Rain = 0
KMC4 111324Z 00007KT M04/M07 A3019 RMK A01 T10421069  RH  081%=      5-min Rain = 0
KMC4 111325Z 01006KT M04/M07 A302 RMK A01 T10421070  RH  081%=      5-min Rain = 0
KMC4 111326Z 36004KT M04/M07 A302 RMK A01 T10431070  RH  081%=      5-min Rain = 0
KMC4 111327Z 35005KT M04/M07 A302 RMK A01 T10421069  RH  082%=      5-min Rain = 0
KMC4 111328Z 34006KT M04/M07 A302 RMK A01 T10421069  RH  082%=      5-min Rain = 0
KMC4 111329Z 34007KT M04/M07 A302 RMK A01 T10421069  RH  081%=      5-min Rain = 0
KMC4 111330Z 34006KT M04/M07 A302 RMK A01 T10421069  RH  081%=      5-min Rain = 0
KMC4 111331Z 33007KT M04/M07 A302 RMK A01 T10411069  RH  081%=      5-min Rain = 0
KMC4 111332Z 33007KT M04/M07 A3021 RMK A01 T10411069  RH  081%=      5-min Rain = 0
KMC4 111333Z 34006KT M04/M07 A3021 RMK A01 T10411068  RH  081%=      5-min Rain = 0
KMC4 111334Z 33008KT M04/M07 A302 RMK A01 T10401068  RH  081%=      5-min Rain = 0
KMC4 111335Z 34007KT M04/M07 A302 RMK A01 T10401068  RH  081%=      5-min Rain = 0
KMC4 111336Z 34006KT M04/M07 A3021 RMK A01 T10391068  RH  081%=      5-min Rain = 0
KMC4 111337Z 33005KT M04/M07 A3021 RMK A01 T10391068  RH  080%=      5-min Rain = 0
KMC4 111338Z 34007KT M04/M07 A3021 RMK A01 T10391068  RH  080%=      5-min Rain = 0
KMC4 111339Z 34010KT M04/M07 A302 RMK A01 T10391069  RH  080%=      5-min Rain = 0
KMC4 111340Z 00011KT M04/M07 A3021 RMK A01 T10401070  RH  080%=      5-min Rain = 0
KMC4 111341Z 35011KT M04/M07 A3021 RMK A01 T10401071  RH  079%=      5-min Rain = 0
KMC4 111342Z 01009KT M04/M07 A3021 RMK A01 T10411071  RH  080%=      5-min Rain = 0
KMC4 111343Z 35008KT M04/M07 A3021 RMK A01 T10421071  RH  080%=      5-min Rain = 0
KMC4 111344Z 35010KT M04/M07 A3021 RMK A01 T10421070  RH  081%=      5-min Rain = 0
KMC4 111345Z 35008KT M04/M07 A3022 RMK A01 T10421070  RH  081%=      5-min Rain = 0
KMC4 111346Z 35008KT M04/M07 A3022 RMK A01 T10421070  RH  081%=      5-min Rain = 0
KMC4 111347Z 36009KT M04/M07 A3022 RMK A01 T10431070  RH  081%=      5-min Rain = 0
KMC4 111348Z 36008KT M04/M07 A3022 RMK A01 T10431070  RH  082%=      5-min Rain = 0
KMC4 111349Z 00006KT M04/M07 A3022 RMK A01 T10431069  RH  082%=      5-min Rain = 0
KMC4 111350Z 01007KT M04/M07 A3022 RMK A01 T10431069  RH  082%=      5-min Rain = 0
KMC4 111351Z 01008KT M04/M07 A3022 RMK A01 T10431069  RH  082%=      5-min Rain = 0
KMC4 111352Z 36007KT M04/M07 A3022 RMK A01 T10431069  RH  082%=      5-min Rain = 0
KMC4 111353Z 35007KT M04/M07 A3022 RMK A01 T10431069  RH  082%=      5-min Rain = 0
KMC4 111354Z 34007KT M04/M07 A3022 RMK A01 T10431069  RH  082%=      5-min Rain = 0
KMC4 111355Z 34008KT M04/M07 A3022 RMK A01 T10421069  RH  082%=      5-min Rain = 0
KMC4 111356Z 35008KT M04/M07 A3022 RMK A01 T10421069  RH  081%=      5-min Rain = 0
KMC4 111357Z 35008KT M04/M07 A3022 RMK A01 T10421070  RH  081%=      5-min Rain = 0
KMC4 111358Z 00007KT M04/M07 A3022 RMK A01 T10421070  RH  081%=      5-min Rain = 0
KMC4 111359Z 01009KT M04/M07 A3022 RMK A01 T10421070  RH  081%=      5-min Rain = 0
KMC4 111400Z 01010KT M04/M07 A3022 RMK A01 T10421070  RH  081%=      5-min Rain = 0
KMC4 111401Z 00009KT M04/M07 A3022 RMK A01 T10421071  RH  080%=      5-min Rain = 0
KMC4 111402Z 36008KT M04/M07 A3022 RMK A01 T10421071  RH  080%=      5-min Rain = 0
KMC4 111403Z 35009KT M04/M07 A3022 RMK A01 T10431072  RH  080%=      5-min Rain = 0
KMC4 111404Z 00008KT M04/M07 A3022 RMK A01 T10431072  RH  080%=      5-min Rain = 0
KMC4 111405Z 01006KT M04/M07 A3022 RMK A01 T10431071  RH  080%=      5-min Rain = 0
KMC4 111406Z 01008KT M04/M07 A3022 RMK A01 T10431071  RH  081%=      5-min Rain = 0
KMC4 111407Z 01008KT M04/M07 A3022 RMK A01 T10431072  RH  080%=      5-min Rain = 0
KMC4 111408Z 01008KT M04/M07 A3022 RMK A01 T10421071  RH  080%=      5-min Rain = 0
KMC4 111409Z 00006KT M04/M07 A3022 RMK A01 T10421072  RH  080%=      5-min Rain = 0
KMC4 111410Z 36008KT M04/M07 A3022 RMK A01 T10421072  RH  080%=      5-min Rain = 0
KMC4 111411Z 35008KT M04/M07 A3022 RMK A01 T10421072  RH  080%=      5-min Rain = 0
KMC4 111412Z 01006KT M04/M07 A3022 RMK A01 T10431072  RH  080%=      5-min Rain = 0
KMC4 111413Z 00007KT M04/M07 A3022 RMK A01 T10421071  RH  081%=      5-min Rain = 0
KMC4 111414Z 00007KT M04/M07 A3022 RMK A01 T10421071  RH  080%=      5-min Rain = 0
KMC4 111415Z 35006KT M04/M07 A3022 RMK A01 T10421072  RH  080%=      5-min Rain = 0
KMC4 111416Z 34006KT M04/M07 A3023 RMK A01 T10421071  RH  080%=      5-min Rain = 0
KMC4 111417Z 35006KT M04/M07 A3023 RMK A01 T10421071  RH  080%=      5-min Rain = 0
KMC4 111418Z 00006KT M04/M07 A3023 RMK A01 T10411071  RH  080%=      5-min Rain = 0
KMC4 111419Z 00005KT M04/M07 A3022 RMK A01 T10421072  RH  079%=      5-min Rain = 0
KMC4 111420Z 34007KT M04/M07 A3023 RMK A01 T10411072  RH  079%=      5-min Rain = 0
KMC4 111421Z 33006KT M04/M07 A3023 RMK A01 T10401072  RH  079%=      5-min Rain = 0
KMC4 111422Z 33009KT M04/M07 A3023 RMK A01 T10401072  RH  079%=      5-min Rain = 0
KMC4 111423Z 34009KT M04/M07 A3023 RMK A01 T10391072  RH  078%=      5-min Rain = 0
KMC4 111424Z 33009KT M04/M07 A3023 RMK A01 T10391073  RH  078%=      5-min Rain = 0
KMC4 111425Z 33010KT M04/M07 A3023 RMK A01 T10391073  RH  077%=      5-min Rain = 0
KMC4 111426Z 34009KT M04/M07 A3023 RMK A01 T10391073  RH  077%=      5-min Rain = 0
KMC4 111427Z 34008KT M04/M07 A3023 RMK A01 T10391073  RH  077%=      5-min Rain = 0
KMC4 111428Z 33010KT M04/M07 A3023 RMK A01 T10391073  RH  077%=      5-min Rain = 0
KMC4 111429Z 34010KT M04/M07 A3023 RMK A01 T10391073  RH  077%=      5-min Rain = 0
KMC4 111430Z 34009KT M04/M07 A3023 RMK A01 T10391073  RH  077%=      5-min Rain = 0
KMC4 111431Z 35008KT M04/M07 A3024 RMK A01 T10391073  RH  077%=      5-min Rain = 0
KMC4 111432Z 35009KT M04/M07 A3024 RMK A01 T10391073  RH  077%=      5-min Rain = 0
KMC4 111433Z 34008KT M04/M07 A3024 RMK A01 T10391073  RH  077%=      5-min Rain = 0
KMC4 111434Z 35007KT M04/M07 A3024 RMK A01 T10381073  RH  077%=      5-min Rain = 0
KMC4 111435Z 35008KT M04/M07 A3024 RMK A01 T10381073  RH  077%=      5-min Rain = 0
KMC4 111436Z 35007KT M04/M07 A3024 RMK A01 T10391073  RH  077%=      5-min Rain = 0
KMC4 111437Z 34006KT M04/M07 A3024 RMK A01 T10391073  RH  077%=      5-min Rain = 0
KMC4 111438Z 34006KT M04/M07 A3024 RMK A01 T10391073  RH  077%=      5-min Rain = 0
KMC4 111439Z 33008KT M04/M07 A3024 RMK A01 T10391073  RH  077%=      5-min Rain = 0
KMC4 111440Z 34007KT M04/M07 A3024 RMK A01 T10381073  RH  077%=      5-min Rain = 0
KMC4 111441Z 35008KT M04/M07 A3024 RMK A01 T10381073  RH  077%=      5-min Rain = 0
KMC4 111442Z 34007KT M04/M07 A3025 RMK A01 T10381073  RH  077%=      5-min Rain = 0
KMC4 111443Z 33007KT M04/M07 A3025 RMK A01 T10381073  RH  077%=      5-min Rain = 0
KMC4 111444Z 34006KT M04/M07 A3025 RMK A01 T10381072  RH  077%=      5-min Rain = 0
KMC4 111445Z 33008KT M04/M07 A3025 RMK A01 T10381073  RH  077%=      5-min Rain = 0
KMC4 111446Z 33008KT M04/M07 A3025 RMK A01 T10381073  RH  077%=      5-min Rain = 0
KMC4 111447Z 33008KT M04/M07 A3025 RMK A01 T10381073  RH  076%=      5-min Rain = 0
KMC4 111448Z 33007KT M04/M07 A3025 RMK A01 T10381074  RH  076%=      5-min Rain = 0
KMC4 111449Z 33007KT M04/M07 A3025 RMK A01 T10381074  RH  076%=      5-min Rain = 0
KMC4 111450Z 33006KT M04/M07 A3025 RMK A01 T10371074  RH  076%=      5-min Rain = 0
KMC4 111451Z 34005KT M04/M07 A3025 RMK A01 T10371074  RH  076%=      5-min Rain = 0
KMC4 111452Z 33005KT M04/M07 A3025 RMK A01 T10371074  RH  076%=      5-min Rain = 0
KMC4 111453Z 32005KT M04/M07 A3025 RMK A01 T10371073  RH  076%=      5-min Rain = 0
KMC4 111454Z 32004KT M04/M07 A3025 RMK A01 T10361073  RH  076%=      5-min Rain = 0
KMC4 111455Z 34006KT M04/M07 A3025 RMK A01 T10351072  RH  076%=      5-min Rain = 0
KMC4 111456Z 34007KT M04/M07 A3025 RMK A01 T10351073  RH  075%=      5-min Rain = 0
KMC4 111457Z 33005KT M04/M07 A3025 RMK A01 T10351074  RH  074%=      5-min Rain = 0
KMC4 111458Z 32008KT M04/M07 A3025 RMK A01 T10351074  RH  074%=      5-min Rain = 0
KMC4 111459Z 32008KT M04/M08 A3026 RMK A01 T10351075  RH  074%=      5-min Rain = 0
KMC4 111500Z 33009KT M04/M08 A3026 RMK A01 T10361075  RH  074%=      5-min Rain = 0
KMC4 111501Z 33008KT M04/M08 A3026 RMK A01 T10361076  RH  074%=      5-min Rain = 0
KMC4 111502Z 33008KT M04/M08 A3026 RMK A01 T10361076  RH  074%=      5-min Rain = 0
KMC4 111503Z 33007KT M04/M08 A3026 RMK A01 T10361076  RH  074%=      5-min Rain = 0
KMC4 111504Z 33007KT M04/M08 A3026 RMK A01 T10361076  RH  074%=      5-min Rain = 0
KMC4 111505Z 33007KT M04/M08 A3026 RMK A01 T10361076  RH  074%=      5-min Rain = 0
KMC4 111506Z 33006KT M04/M08 A3026 RMK A01 T10351076  RH  074%=      5-min Rain = 0
KMC4 111507Z 33008KT M04/M08 A3026 RMK A01 T10351076  RH  073%=      5-min Rain = 0
KMC4 111508Z 33007KT M04/M08 A3026 RMK A01 T10351076  RH  073%=      5-min Rain = 0
KMC4 111509Z 33006KT M04/M08 A3026 RMK A01 T10351076  RH  073%=      5-min Rain = 0
KMC4 111510Z 34007KT M03/M08 A3026 RMK A01 T10341076  RH  072%=      5-min Rain = 0
KMC4 111511Z 34008KT M03/M08 A3026 RMK A01 T10331077  RH  072%=      5-min Rain = 0
KMC4 111512Z 33007KT M03/M08 A3026 RMK A01 T10331078  RH  071%=      5-min Rain = 0
KMC4 111513Z 33006KT M03/M08 A3026 RMK A01 T10331079  RH  071%=      5-min Rain = 0
KMC4 111514Z 33007KT M03/M08 A3026 RMK A01 T10331078  RH  071%=      5-min Rain = 0
KMC4 111515Z 33008KT M03/M08 A3026 RMK A01 T10331079  RH  071%=      5-min Rain = 0
KMC4 111516Z 34008KT M03/M08 A3026 RMK A01 T10331079  RH  070%=      5-min Rain = 0
KMC4 111517Z 34007KT M03/M08 A3026 RMK A01 T10331079  RH  070%=      5-min Rain = 0
KMC4 111518Z 33007KT M03/M08 A3027 RMK A01 T10321079  RH  070%=      5-min Rain = 0
KMC4 111519Z 32006KT M03/M08 A3026 RMK A01 T10321079  RH  070%=      5-min Rain = 0
KMC4 111520Z 32006KT M03/M08 A3026 RMK A01 T10311079  RH  070%=      5-min Rain = 0
KMC4 111521Z 34006KT M03/M08 A3027 RMK A01 T10301078  RH  070%=      5-min Rain = 0
KMC4 111522Z 34005KT M03/M08 A3027 RMK A01 T10301078  RH  069%=      5-min Rain = 0
KMC4 111523Z 34007KT M03/M08 A3027 RMK A01 T10291079  RH  069%=      5-min Rain = 0
KMC4 111524Z 33007KT M03/M08 A3027 RMK A01 T10301080  RH  068%=      5-min Rain = 0
KMC4 111525Z 33007KT M03/M08 A3027 RMK A01 T10301080  RH  068%=      5-min Rain = 0
KMC4 111526Z 34007KT M03/M08 A3027 RMK A01 T10301080  RH  068%=      5-min Rain = 0
KMC4 111527Z 32007KT M03/M08 A3027 RMK A01 T10301080  RH  068%=      5-min Rain = 0
KMC4 111528Z 33005KT M03/M08 A3027 RMK A01 T10291080  RH  068%=      5-min Rain = 0
KMC4 111529Z 33005KT M03/M08 A3027 RMK A01 T10291080  RH  068%=      5-min Rain = 0
KMC4 111530Z 32006KT M03/M08 A3027 RMK A01 T10281079  RH  068%=      5-min Rain = 0
KMC4 111531Z 32006KT M03/M08 A3027 RMK A01 T10271080  RH  067%=      5-min Rain = 0
KMC4 111532Z 34006KT M03/M08 A3027 RMK A01 T10271080  RH  067%=      5-min Rain = 0
KMC4 111533Z 33005KT M03/M08 A3027 RMK A01 T10251079  RH  066%=      5-min Rain = 0
KMC4 111534Z 34005KT M03/M08 A3027 RMK A01 T10251080  RH  066%=      5-min Rain = 0
KMC4 111535Z 33007KT M03/M08 A3027 RMK A01 T10251081  RH  065%=      5-min Rain = 0
KMC4 111536Z 32007KT M02/M08 A3027 RMK A01 T10241082  RH  065%=      5-min Rain = 0
KMC4 111537Z 32007KT M03/M08 A3027 RMK A01 T10251083  RH  064%=      5-min Rain = 0
KMC4 111538Z 33008KT M03/M08 A3027 RMK A01 T10251084  RH  064%=      5-min Rain = 0
KMC4 111539Z 34007KT M03/M08 A3027 RMK A01 T10251083  RH  064%=      5-min Rain = 0
KMC4 111540Z 33010KT M02/M08 A3027 RMK A01 T10241084  RH  063%=      5-min Rain = 0
KMC4 111541Z 34010KT M02/M09 A3027 RMK A01 T10231085  RH  063%=      5-min Rain = 0
KMC4 111542Z 34010KT M02/M09 A3027 RMK A01 T10231087  RH  062%=      5-min Rain = 0
KMC4 111543Z 34008KT M02/M09 A3027 RMK A01 T10241088  RH  062%=      5-min Rain = 0
KMC4 111544Z 34009KT M02/M09 A3027 RMK A01 T10241088  RH  061%=      5-min Rain = 0
KMC4 111545Z 32010KT M02/M09 A3027 RMK A01 T10231088  RH  061%=      5-min Rain = 0
KMC4 111546Z 33011KT M02/M09 A3027 RMK A01 T10221087  RH  061%=      5-min Rain = 0
KMC4 111547Z 32012KT M02/M09 A3027 RMK A01 T10221088  RH  061%=      5-min Rain = 0
KMC4 111548Z 32010KT M02/M09 A3027 RMK A01 T10221088  RH  061%=      5-min Rain = 0
KMC4 111549Z 32010KT M02/M09 A3027 RMK A01 T10221088  RH  061%=      5-min Rain = 0
KMC4 111550Z 32007KT M02/M09 A3027 RMK A01 T10221088  RH  061%=      5-min Rain = 0
KMC4 111551Z 32008KT M02/M09 A3027 RMK A01 T10221087  RH  061%=      5-min Rain = 0
KMC4 111552Z 32008KT M02/M09 A3027 RMK A01 T10211088  RH  060%=      5-min Rain = 0
KMC4 111553Z 33009KT M02/M09 A3027 RMK A01 T10211088  RH  060%=      5-min Rain = 0
KMC4 111554Z 32008KT M02/M09 A3027 RMK A01 T10201088  RH  060%=      5-min Rain = 0
KMC4 111555Z 31007KT M02/M09 A3028 RMK A01 T10201087  RH  060%=      5-min Rain = 0
KMC4 111556Z 32007KT M02/M09 A3028 RMK A01 T10181086  RH  060%=      5-min Rain = 0
KMC4 111557Z 32008KT M02/M09 A3028 RMK A01 T10171086  RH  059%=      5-min Rain = 0
KMC4 111558Z 32008KT M02/M09 A3028 RMK A01 T10161087  RH  059%=      5-min Rain = 0
KMC4 111559Z 31009KT M02/M09 A3027 RMK A01 T10161088  RH  058%=      5-min Rain = 0
KMC4 111600Z 30008KT M02/M09 A3028 RMK A01 T10171089  RH  058%=      5-min Rain = 0
KMC4 111601Z 31009KT M02/M09 A3028 RMK A01 T10171088  RH  058%=      5-min Rain = 0
KMC4 111602Z 31007KT M02/M09 A3028 RMK A01 T10171088  RH  058%=      5-min Rain = 0
KMC4 111603Z 32008KT M02/M09 A3028 RMK A01 T10151088  RH  058%=      5-min Rain = 0
KMC4 111604Z 32006KT M02/M09 A3028 RMK A01 T10151088  RH  057%=      5-min Rain = 0
KMC4 111605Z 31007KT M01/M09 A3028 RMK A01 T10141088  RH  057%=      5-min Rain = 0
KMC4 111606Z 31007KT M01/M09 A3027 RMK A01 T10141089  RH  057%=      5-min Rain = 0
KMC4 111607Z 30008KT M01/M09 A3027 RMK A01 T10141088  RH  057%=      5-min Rain = 0
KMC4 111608Z 31009KT M01/M09 A3027 RMK A01 T10141088  RH  057%=      5-min Rain = 0
KMC4 111609Z 31010KT M01/M09 A3027 RMK A01 T10141089  RH  057%=      5-min Rain = 0
KMC4 111610Z 31009KT M02/M09 A3027 RMK A01 T10151089  RH  057%=      5-min Rain = 0
KMC4 111611Z 31010KT M02/M09 A3027 RMK A01 T10151089  RH  057%=      5-min Rain = 0
KMC4 111612Z 30010KT M02/M09 A3027 RMK A01 T10151090  RH  057%=      5-min Rain = 0
KMC4 111613Z 30010KT M02/M09 A3027 RMK A01 T10151090  RH  057%=      5-min Rain = 0
KMC4 111614Z 31010KT M02/M09 A3027 RMK A01 T10151090  RH  057%=      5-min Rain = 0
KMC4 111615Z 31010KT M02/M09 A3027 RMK A01 T10151090  RH  057%=      5-min Rain = 0
KMC4 111616Z 31010KT M02/M09 A3028 RMK A01 T10151089  RH  057%=      5-min Rain = 0
KMC4 111617Z 32011KT M01/M09 A3028 RMK A01 T10141090  RH  056%=      5-min Rain = 0
KMC4 111618Z 32010KT M01/M09 A3028 RMK A01 T10141091  RH  056%=      5-min Rain = 0
KMC4 111619Z 30006KT M01/M09 A3028 RMK A01 T10131090  RH  056%=      5-min Rain = 0
KMC4 111620Z 30010KT M01/M09 A3028 RMK A01 T10131090  RH  056%=      5-min Rain = 0
KMC4 111621Z 29010KT M01/M09 A3027 RMK A01 T10131091  RH  055%=      5-min Rain = 0
KMC4 111622Z 29010KT M01/M09 A3027 RMK A01 T10131091  RH  055%=      5-min Rain = 0
KMC4 111623Z 29007KT M01/M09 A3027 RMK A01 T10131092  RH  055%=      5-min Rain = 0
KMC4 111624Z 31007KT M01/M09 A3027 RMK A01 T10131090  RH  056%=      5-min Rain = 0
KMC4 111625Z 32008KT M01/M09 A3027 RMK A01 T10111089  RH  056%=      5-min Rain = 0
KMC4 111626Z 32008KT M01/M09 A3027 RMK A01 T10101090  RH  055%=      5-min Rain = 0
KMC4 111627Z 31007KT M01/M09 A3027 RMK A01 T10101090  RH  055%=      5-min Rain = 0
KMC4 111628Z 33008KT M01/M09 A3027 RMK A01 T10081089  RH  054%=      5-min Rain = 0
KMC4 111629Z 32009KT M01/M09 A3027 RMK A01 T10061089  RH  053%=      5-min Rain = 0
KMC4 111630Z 31007KT M01/M09 A3027 RMK A01 T10061091  RH  053%=      5-min Rain = 0
KMC4 111631Z 31006KT M01/M09 A3027 RMK A01 T10071091  RH  053%=      5-min Rain = 0
KMC4 111632Z 31009KT M01/M09 A3027 RMK A01 T10061091  RH  053%=      5-min Rain = 0
KMC4 111633Z 33007KT M01/M09 A3027 RMK A01 T10071093  RH  052%=      5-min Rain = 0
KMC4 111634Z 32007KT M01/M09 A3027 RMK A01 T10081093  RH  052%=      5-min Rain = 0
KMC4 111635Z 30006KT M01/M09 A3027 RMK A01 T10081093  RH  053%=      5-min Rain = 0
KMC4 111636Z 31008KT M01/M09 A3027 RMK A01 T10071092  RH  053%=      5-min Rain = 0
KMC4 111637Z 30006G11KT M01/M09 A3028 RMK A01 T10071092  RH  053%=      5-min Rain = 0
KMC4 111638Z 31011KT M01/M09 A3027 RMK A01 T10061091  RH  052%=      5-min Rain = 0
KMC4 111639Z 32009KT M01/M09 A3028 RMK A01 T10051093  RH  051%=      5-min Rain = 0
KMC4 111640Z 32008KT M01/M09 A3028 RMK A01 T10051094  RH  051%=      5-min Rain = 0
KMC4 111641Z 32007KT M01/M10 A3027 RMK A01 T10051095  RH  051%=      5-min Rain = 0
KMC4 111642Z 32007KT M00/M09 A3027 RMK A01 T10041093  RH  051%=      5-min Rain = 0
KMC4 111643Z 31008KT M00/M09 A3027 RMK A01 T10031093  RH  050%=      5-min Rain = 0
KMC4 111644Z 31009KT M00/M09 A3027 RMK A01 T10021093  RH  050%=      5-min Rain = 0
KMC4 111645Z 32009KT 00/09 A3028 RMK A01 T00-00-92  RH  050%=      5-min Rain = 0
KMC4 111646Z 32010KT 00/M09 A3028 RMK A01 T00011093  RH  049%=      5-min Rain = 0
KMC4 111647Z 31010KT 00/10 A3028 RMK A01 T00000-95  RH  049%=      5-min Rain = 0
KMC4 111648Z 31009KT M00/M10 A3028 RMK A01 T10011095  RH  049%=      5-min Rain = 0
KMC4 111649Z 31009KT M00/M10 A3028 RMK A01 T10021096  RH  049%=      5-min Rain = 0
KMC4 111650Z 31008KT M00/M10 A3028 RMK A01 T10021096  RH  049%=      5-min Rain = 0
KMC4 111651Z 30010KT M00/M10 A3028 RMK A01 T10021095  RH  049%=      5-min Rain = 0
KMC4 111652Z 31009KT 00/10 A3028 RMK A01 T00000-95  RH  049%=      5-min Rain = 0
KMC4 111653Z 29009KT 00/M10 A3028 RMK A01 T00011095  RH  049%=      5-min Rain = 0
KMC4 111654Z 31010KT 00/M10 A3028 RMK A01 T00031095  RH  048%=      5-min Rain = 0
KMC4 111655Z 32010KT 00/M10 A3028 RMK A01 T00031095  RH  048%=      5-min Rain = 0
KMC4 111656Z 32012KT 00/M10 A3028 RMK A01 T00031096  RH  048%=      5-min Rain = 0
KMC4 111657Z 33011KT 00/M10 A3028 RMK A01 T00031096  RH  047%=      5-min Rain = 0
KMC4 111658Z 34008KT 00/M10 A3028 RMK A01 T00031096  RH  047%=      5-min Rain = 0
KMC4 111659Z 31011KT 00/M10 A3028 RMK A01 T00031095  RH  048%=      5-min Rain = 0
KMC4 111700Z 30010KT 00/M10 A3028 RMK A01 T00041095  RH  048%=      5-min Rain = 0
KMC4 111701Z 31009KT 00/M10 A3028 RMK A01 T00041095  RH  047%=      5-min Rain = 0
KMC4 111702Z 30009KT 00/M10 A3028 RMK A01 T00041095  RH  047%=      5-min Rain = 0
KMC4 111703Z 30009KT 00/M10 A3028 RMK A01 T00031096  RH  047%=      5-min Rain = 0
KMC4 111704Z 29009KT 00/M10 A3028 RMK A01 T00011097  RH  048%=      5-min Rain = 0
KMC4 111705Z 30007KT 00/M10 A3028 RMK A01 T00011096  RH  048%=      5-min Rain = 0
KMC4 111706Z 31011KT 00/M09 A3028 RMK A01 T00031094  RH  048%=      5-min Rain = 0
KMC4 111707Z 31009KT 01/M09 A3028 RMK A01 T00051094  RH  048%=      5-min Rain = 0
KMC4 111708Z 32008G13KT 01/M10 A3028 RMK A01 T00051095  RH  047%=      5-min Rain = 0
KMC4 111709Z 30012KT 01/M10 A3028 RMK A01 T00071095  RH  046%=      5-min Rain = 0
KMC4 111710Z 32012KT 01/M10 A3028 RMK A01 T00071096  RH  046%=      5-min Rain = 0
KMC4 111711Z 32012KT 01/M10 A3028 RMK A01 T00071096  RH  046%=      5-min Rain = 0
KMC4 111712Z 32010KT 01/M10 A3028 RMK A01 T00061097  RH  046%=      5-min Rain = 0
KMC4 111713Z 32010KT 01/M10 A3028 RMK A01 T00061097  RH  046%=      5-min Rain = 0
KMC4 111714Z 31010KT 01/M10 A3028 RMK A01 T00051098  RH  046%=      5-min Rain = 0
KMC4 111715Z 31011KT 01/M10 A3028 RMK A01 T00061096  RH  046%=      5-min Rain = 0
KMC4 111716Z 32009KT 01/M10 A3028 RMK A01 T00091095  RH  046%=      5-min Rain = 0
KMC4 111717Z 33011KT 01/M10 A3028 RMK A01 T00091097  RH  045%=      5-min Rain = 0
KMC4 111718Z 31009KT 01/M10 A3028 RMK A01 T00091098  RH  045%=      5-min Rain = 0
KMC4 111719Z 30009KT 01/M10 A3028 RMK A01 T00091099  RH  044%=      5-min Rain = 0
KMC4 111720Z 32006KT 01/M10 A3028 RMK A01 T00071100  RH  044%=      5-min Rain = 0
KMC4 111721Z 30009KT 01/M10 A3028 RMK A01 T00091099  RH  044%=      5-min Rain = 0
KMC4 111722Z 29009KT 01/M10 A3028 RMK A01 T00091102  RH  043%=      5-min Rain = 0
KMC4 111723Z 29010KT 01/M10 A3028 RMK A01 T00081103  RH  043%=      5-min Rain = 0
KMC4 111724Z 29009KT 01/M10 A3028 RMK A01 T00101104  RH  042%=      5-min Rain = 0
KMC4 111725Z 32011G16KT 01/M10 A3027 RMK A01 T00141101  RH  042%=      5-min Rain = 0
KMC4 111726Z 32013KT 02/M10 A3027 RMK A01 T00161103  RH  041%=      5-min Rain = 0
KMC4 111727Z 32010KT 01/M11 A3027 RMK A01 T00141107  RH  040%=      5-min Rain = 0
KMC4 111728Z 31010KT 01/M11 A3027 RMK A01 T00131108  RH  040%=      5-min Rain = 0
KMC4 111729Z 32008KT 01/M11 A3027 RMK A01 T00121109  RH  040%=      5-min Rain = 0
KMC4 111730Z 31012KT 01/M11 A3027 RMK A01 T00131108  RH  040%=      5-min Rain = 0
KMC4 111731Z 33010KT 01/M11 A3027 RMK A01 T00141108  RH  040%=      5-min Rain = 0
KMC4 111732Z 33011KT 01/M11 A3027 RMK A01 T00141108  RH  040%=      5-min Rain = 0
KMC4 111733Z 33010KT 01/M11 A3027 RMK A01 T00131110  RH  040%=      5-min Rain = 0
KMC4 111734Z 31011KT 01/M11 A3027 RMK A01 T00111111  RH  040%=      5-min Rain = 0
KMC4 111735Z 31011KT 01/M11 A3027 RMK A01 T00101111  RH  040%=      5-min Rain = 0
KMC4 111736Z 32011KT 01/M11 A3027 RMK A01 T00101110  RH  040%=      5-min Rain = 0
KMC4 111737Z 31008KT 01/M11 A3027 RMK A01 T00121109  RH  040%=      5-min Rain = 0
KMC4 111738Z 31009KT 01/M11 A3027 RMK A01 T00121110  RH  040%=      5-min Rain = 0
KMC4 111739Z 31009KT 01/M11 A3027 RMK A01 T00111110  RH  040%=      5-min Rain = 0
KMC4 111740Z 31011G16KT 01/M11 A3027 RMK A01 T00131107  RH  040%=      5-min Rain = 0
KMC4 111741Z 30013KT 02/M11 A3027 RMK A01 T00151108  RH  040%=      5-min Rain = 0
KMC4 111742Z 31011KT 01/M11 A3027 RMK A01 T00131109  RH  040%=      5-min Rain = 0
KMC4 111743Z 31013KT 01/M11 A3027 RMK A01 T00131109  RH  040%=      5-min Rain = 0
KMC4 111744Z 30009KT 01/M11 A3027 RMK A01 T00131109  RH  040%=      5-min Rain = 0
KMC4 111745Z 31008KT 01/M11 A3027 RMK A01 T00141109  RH  040%=      5-min Rain = 0
KMC4 111746Z 33009KT 02/M11 A3027 RMK A01 T00151109  RH  039%=      5-min Rain = 0
KMC4 111747Z 33010KT 01/M11 A3027 RMK A01 T00141110  RH  039%=      5-min Rain = 0
KMC4 111748Z 32009KT 01/M11 A3027 RMK A01 T00141110  RH  039%=      5-min Rain = 0
KMC4 111749Z 31010KT 02/M11 A3027 RMK A01 T00151108  RH  039%=      5-min Rain = 0
KMC4 111750Z 32011KT 02/M11 A3027 RMK A01 T00161108  RH  039%=      5-min Rain = 0
KMC4 111751Z 33012KT 02/M11 A3027 RMK A01 T00181108  RH  039%=      5-min Rain = 0
KMC4 111752Z 33010KT 02/M11 A3027 RMK A01 T00171110  RH  038%=      5-min Rain = 0
KMC4 111753Z 32009KT 02/M11 A3027 RMK A01 T00151111  RH  039%=      5-min Rain = 0
KMC4 111754Z 29010KT 02/M11 A3027 RMK A01 T00151108  RH  039%=      5-min Rain = 0
KMC4 111755Z 29013KT 02/M11 A3027 RMK A01 T00161108  RH  039%=      5-min Rain = 0
KMC4 111756Z 29011KT 02/M11 A3027 RMK A01 T00171108  RH  039%=      5-min Rain = 0
KMC4 111757Z 30009KT 02/M11 A3027 RMK A01 T00151109  RH  039%=      5-min Rain = 0
KMC4 111758Z 31007KT 01/M11 A3027 RMK A01 T00141108  RH  040%=      5-min Rain = 0
KMC4 111759Z 31008KT 02/M11 A3026 RMK A01 T00161106  RH  040%=      5-min Rain = 0
KMC4 111800Z 31009KT 02/M11 A3026 RMK A01 T00181105  RH  039%=      5-min Rain = 0
KMC4 111801Z 32010KT 02/M11 A3026 RMK A01 T00191106  RH  039%=      5-min Rain = 0
KMC4 111802Z 31009KT 02/M11 A3026 RMK A01 T00181107  RH  039%=      5-min Rain = 0
KMC4 111803Z 31012KT 02/M11 A3026 RMK A01 T00191107  RH  039%=      5-min Rain = 0
KMC4 111804Z 31009KT 02/M11 A3026 RMK A01 T00191107  RH  039%=      5-min Rain = 0
KMC4 111805Z 30008KT 02/M11 A3026 RMK A01 T00181107  RH  039%=      5-min Rain = 0
KMC4 111806Z 29009KT 02/M11 A3026 RMK A01 T00191107  RH  039%=      5-min Rain = 0
KMC4 111807Z 29010KT 02/M11 A3026 RMK A01 T00201106  RH  039%=      5-min Rain = 0
KMC4 111808Z 30010KT 02/M11 A3026 RMK A01 T00201107  RH  038%=      5-min Rain = 0
KMC4 111809Z 33010KT 02/M11 A3026 RMK A01 T00231105  RH  038%=      5-min Rain = 0
KMC4 111810Z 32011KT 02/M11 A3025 RMK A01 T00241106  RH  038%=      5-min Rain = 0
KMC4 111811Z 34008KT 03/M11 A3025 RMK A01 T00251105  RH  038%=      5-min Rain = 0
KMC4 111812Z 35009KT 03/M11 A3025 RMK A01 T00271105  RH  037%=      5-min Rain = 0
KMC4 111813Z 35008KT 03/M11 A3025 RMK A01 T00261108  RH  037%=      5-min Rain = 0
KMC4 111814Z 34010KT 03/M11 A3025 RMK A01 T00251109  RH  037%=      5-min Rain = 0
KMC4 111815Z 32009KT 02/M11 A3025 RMK A01 T00241109  RH  037%=      5-min Rain = 0
KMC4 111816Z 30008KT 02/M11 A3026 RMK A01 T00241108  RH  037%=      5-min Rain = 0
KMC4 111817Z 30006KT 03/M11 A3025 RMK A01 T00251108  RH  037%=      5-min Rain = 0
KMC4 111818Z 31011G19KT 03/M11 A3025 RMK A01 T00261107  RH  037%=      5-min Rain = 0
KMC4 111819Z 32012KT 03/M11 A3025 RMK A01 T00291105  RH  037%=      5-min Rain = 0
KMC4 111820Z 31011KT 03/M11 A3025 RMK A01 T00291107  RH  036%=      5-min Rain = 0
KMC4 111821Z 32010KT 03/M11 A3025 RMK A01 T00271109  RH  036%=      5-min Rain = 0
KMC4 111822Z 31012KT 03/M11 A3025 RMK A01 T00311106  RH  036%=      5-min Rain = 0
KMC4 111823Z 31011KT 03/M11 A3025 RMK A01 T00321108  RH  035%=      5-min Rain = 0
KMC4 111824Z 31012KT 03/M11 A3025 RMK A01 T00311109  RH  035%=      5-min Rain = 0
KMC4 111825Z 32010KT 03/M11 A3025 RMK A01 T00321106  RH  036%=      5-min Rain = 0
KMC4 111826Z 32010KT 03/M11 A3025 RMK A01 T00331105  RH  036%=      5-min Rain = 0
KMC4 111827Z 33008KT 04/M11 A3025 RMK A01 T00361106  RH  035%=      5-min Rain = 0
KMC4 111828Z 33009KT 03/M11 A3025 RMK A01 T00331110  RH  034%=      5-min Rain = 0
KMC4 111829Z 31012KT 03/M11 A3025 RMK A01 T00321109  RH  035%=      5-min Rain = 0
KMC4 111830Z 31012KT 03/M11 A3024 RMK A01 T00331108  RH  035%=      5-min Rain = 0
KMC4 111831Z 32012KT 03/M11 A3025 RMK A01 T00331108  RH  035%=      5-min Rain = 0
KMC4 111832Z 33009KT 03/M11 A3025 RMK A01 T00311110  RH  035%=      5-min Rain = 0
KMC4 111833Z 32012KT 03/M11 A3025 RMK A01 T00311108  RH  035%=      5-min Rain = 0
KMC4 111834Z 32010KT 03/M11 A3025 RMK A01 T00341107  RH  035%=      5-min Rain = 0
KMC4 111835Z 31011KT 03/M11 A3025 RMK A01 T00341108  RH  034%=      5-min Rain = 0
KMC4 111836Z 30010KT 04/M11 A3024 RMK A01 T00351109  RH  034%=      5-min Rain = 0
KMC4 111837Z 29012KT 03/M11 A3024 RMK A01 T00331109  RH  034%=      5-min Rain = 0
KMC4 111838Z 30008KT 03/M11 A3024 RMK A01 T00341109  RH  034%=      5-min Rain = 0
KMC4 111839Z 31008KT 04/M11 A3024 RMK A01 T00371106  RH  034%=      5-min Rain = 0
KMC4 111840Z 34011KT 04/M11 A3024 RMK A01 T00381108  RH  033%=      5-min Rain = 0
KMC4 111841Z 32011KT 04/M11 A3025 RMK A01 T00361111  RH  033%=      5-min Rain = 0
KMC4 111842Z 32011KT 04/M11 A3025 RMK A01 T00391106  RH  034%=      5-min Rain = 0
KMC4 111843Z 30009KT 04/M11 A3025 RMK A01 T00441105  RH  033%=      5-min Rain = 0
KMC4 111844Z 30006KT 04/M11 A3024 RMK A01 T00421110  RH  032%=      5-min Rain = 0
KMC4 111845Z 33012KT 04/M11 A3024 RMK A01 T00401109  RH  033%=      5-min Rain = 0
KMC4 111846Z 33013KT 04/M11 A3024 RMK A01 T00391110  RH  033%=      5-min Rain = 0
KMC4 111847Z 34014KT 04/M11 A3024 RMK A01 T00381109  RH  033%=      5-min Rain = 0
KMC4 111848Z 33011KT 04/M11 A3024 RMK A01 T00361110  RH  034%=      5-min Rain = 0
KMC4 111849Z 33012KT 04/M11 A3024 RMK A01 T00371107  RH  034%=      5-min Rain = 0
KMC4 111850Z 33011KT 04/M11 A3024 RMK A01 T00381109  RH  033%=      5-min Rain = 0
KMC4 111851Z 33010KT 04/M11 A3024 RMK A01 T00351111  RH  034%=      5-min Rain = 0
KMC4 111852Z 35009KT 04/M11 A3024 RMK A01 T00351110  RH  034%=      5-min Rain = 0
KMC4 111853Z 34008KT 03/M11 A3024 RMK A01 T00331111  RH  034%=      5-min Rain = 0
KMC4 111854Z 34007KT 03/M11 A3024 RMK A01 T00331110  RH  034%=      5-min Rain = 0
KMC4 111855Z 33012KT 04/M11 A3024 RMK A01 T00361107  RH  034%=      5-min Rain = 0
KMC4 111856Z 31013KT 04/M11 A3024 RMK A01 T00371108  RH  034%=      5-min Rain = 0
KMC4 111857Z 31010KT 04/M11 A3024 RMK A01 T00351110  RH  034%=      5-min Rain = 0
KMC4 111858Z 32010KT 03/M11 A3024 RMK A01 T00331109  RH  034%=      5-min Rain = 0
KMC4 111859Z 32013KT 04/M11 A3024 RMK A01 T00381106  RH  034%=      5-min Rain = 0
KMC4 111900Z 30012KT 04/M11 A3024 RMK A01 T00401107  RH  033%=      5-min Rain = 0
KMC4 111901Z 30010KT 04/M11 A3024 RMK A01 T00381111  RH  033%=      5-min Rain = 0
KMC4 111902Z 30011KT 03/M11 A3024 RMK A01 T00341112  RH  033%=      5-min Rain = 0
KMC4 111903Z 31009G14KT 04/M11 A3024 RMK A01 T00361108  RH  034%=      5-min Rain = 0
KMC4 111904Z 31010KT 04/M11 A3023 RMK A01 T00381108  RH  033%=      5-min Rain = 0
KMC4 111905Z 30008KT 04/M11 A3023 RMK A01 T00391109  RH  033%=      5-min Rain = 0
KMC4 111906Z 31012KT 04/M11 A3023 RMK A01 T00401106  RH  034%=      5-min Rain = 0
KMC4 111907Z 30012KT 04/M11 A3023 RMK A01 T00441105  RH  033%=      5-min Rain = 0
KMC4 111908Z 30012G17KT 05/M11 A3023 RMK A01 T00451107  RH  032%=      5-min Rain = 0
KMC4 111909Z 30011KT 04/M11 A3023 RMK A01 T00441109  RH  032%=      5-min Rain = 0
KMC4 111910Z 31010KT 04/M11 A3023 RMK A01 T00401111  RH  032%=      5-min Rain = 0
KMC4 111911Z 29013KT 04/M11 A3023 RMK A01 T00411110  RH  033%=      5-min Rain = 0
KMC4 111912Z 29013KT 04/M11 A3023 RMK A01 T00391111  RH  033%=      5-min Rain = 0
KMC4 111913Z 29010KT 04/M11 A3023 RMK A01 T00381111  RH  033%=      5-min Rain = 0
KMC4 111914Z 29011KT 04/M11 A3022 RMK A01 T00381111  RH  033%=      5-min Rain = 0
KMC4 111915Z 30009KT 04/M11 A3022 RMK A01 T00381110  RH  033%=      5-min Rain = 0
KMC4 111916Z 27008KT 04/M11 A3022 RMK A01 T00371111  RH  033%=      5-min Rain = 0
KMC4 111917Z 27008KT 04/M11 A3022 RMK A01 T00371110  RH  033%=      5-min Rain = 0
KMC4 111918Z 29008KT 04/M11 A3022 RMK A01 T00361112  RH  033%=      5-min Rain = 0
KMC4 111919Z 31007KT 04/M11 A3022 RMK A01 T00361111  RH  033%=      5-min Rain = 0
KMC4 111920Z 32009KT 04/M11 A3022 RMK A01 T00361110  RH  033%=      5-min Rain = 0
KMC4 111921Z 31008KT 04/M11 A3022 RMK A01 T00381109  RH  033%=      5-min Rain = 0
KMC4 111922Z 30012KT 04/M11 A3022 RMK A01 T00411106  RH  033%=      5-min Rain = 0
KMC4 111923Z 31011KT 04/M11 A3022 RMK A01 T00441106  RH  033%=      5-min Rain = 0
KMC4 111924Z 30011KT 05/M11 A3022 RMK A01 T00461106  RH  032%=      5-min Rain = 0
KMC4 111925Z 31011KT 05/M11 A3022 RMK A01 T00451108  RH  032%=      5-min Rain = 0
KMC4 111926Z 31008KT 04/M11 A3022 RMK A01 T00431110  RH  032%=      5-min Rain = 0
KMC4 111927Z 29009KT 04/M11 A3022 RMK A01 T00401111  RH  032%=      5-min Rain = 0
KMC4 111928Z 29011KT 04/M11 A3022 RMK A01 T00401109  RH  033%=      5-min Rain = 0
KMC4 111929Z 30010KT 04/M11 A3022 RMK A01 T00431107  RH  033%=      5-min Rain = 0
KMC4 111930Z 30008KT 05/M11 A3022 RMK A01 T00461107  RH  032%=      5-min Rain = 0
KMC4 111931Z 29007KT 04/M11 A3022 RMK A01 T00441108  RH  032%=      5-min Rain = 0
KMC4 111932Z 29007KT 05/M11 A3022 RMK A01 T00451107  RH  032%=      5-min Rain = 0
KMC4 111933Z 29007KT 05/M11 A3021 RMK A01 T00451108  RH  032%=      5-min Rain = 0
KMC4 111934Z 30007KT 04/M11 A3021 RMK A01 T00431110  RH  032%=      5-min Rain = 0
KMC4 111935Z 29006KT 04/M11 A3021 RMK A01 T00421109  RH  033%=      5-min Rain = 0
KMC4 111936Z 27008KT 04/M11 A3021 RMK A01 T00421108  RH  033%=      5-min Rain = 0
KMC4 111937Z 29008KT 04/M11 A3021 RMK A01 T00431108  RH  032%=      5-min Rain = 0
KMC4 111938Z 31008KT 04/M11 A3021 RMK A01 T00441106  RH  033%=      5-min Rain = 0
KMC4 111939Z 31010KT 05/M10 A3021 RMK A01 T00481104  RH  032%=      5-min Rain = 0
KMC4 111940Z 32007KT 05/M11 A3021 RMK A01 T00481106  RH  032%=      5-min Rain = 0
KMC4 111941Z 32008KT 05/M11 A3021 RMK A01 T00471106  RH  032%=      5-min Rain = 0
KMC4 111942Z 30009KT 05/M11 A3021 RMK A01 T00481105  RH  032%=      5-min Rain = 0
KMC4 111943Z 30010KT 05/M10 A3021 RMK A01 T00491104  RH  032%=      5-min Rain = 0
KMC4 111944Z 29007KT 05/M10 A3021 RMK A01 T00511104  RH  032%=      5-min Rain = 0
KMC4 111945Z 29007KT 05/M10 A3021 RMK A01 T00511104  RH  032%=      5-min Rain = 0
KMC4 111946Z 28012KT 05/M11 A302 RMK A01 T00511105  RH  031%=      5-min Rain = 0
KMC4 111947Z 29010KT 05/M11 A3021 RMK A01 T00501107  RH  031%=      5-min Rain = 0
KMC4 111948Z 30006KT 05/M11 A3021 RMK A01 T00471108  RH  031%=      5-min Rain = 0
KMC4 111949Z 30007KT 05/M11 A3021 RMK A01 T00481106  RH  032%=      5-min Rain = 0
KMC4 111950Z 32009KT 05/M10 A3021 RMK A01 T00501104  RH  032%=      5-min Rain = 0
KMC4 111951Z 33011KT 05/M10 A302 RMK A01 T00541103  RH  031%=      5-min Rain = 0
KMC4 111952Z 32011KT 06/M10 A302 RMK A01 T00551104  RH  031%=      5-min Rain = 0
KMC4 111953Z 30011KT 06/M10 A302 RMK A01 T00571103  RH  031%=      5-min Rain = 0
KMC4 111954Z 32012KT 06/M10 A302 RMK A01 T00571104  RH  030%=      5-min Rain = 0
KMC4 111955Z 31011KT 06/M11 A302 RMK A01 T00571105  RH  030%=      5-min Rain = 0
KMC4 111956Z 31007KT 05/M11 A302 RMK A01 T00541108  RH  030%=      5-min Rain = 0
KMC4 111957Z 32006G11KT 05/M11 A302 RMK A01 T00521107  RH  031%=      5-min Rain = 0
KMC4 111958Z 32009KT 05/M11 A302 RMK A01 T00531106  RH  031%=      5-min Rain = 0
KMC4 111959Z 33009KT 06/M11 A302 RMK A01 T00551105  RH  031%=      5-min Rain = 0
KMC4 112000Z 34007KT 06/M11 A302 RMK A01 T00561105  RH  030%=      5-min Rain = 0
KMC4 112001Z 32008KT 06/M11 A302 RMK A01 T00561105  RH  030%=      5-min Rain = 0
KMC4 112002Z 32008KT 06/M10 A302 RMK A01 T00581104  RH  030%=      5-min Rain = 0
KMC4 112003Z 31010KT 06/M10 A302 RMK A01 T00621102  RH  030%=      5-min Rain = 0
KMC4 112004Z 30012KT 06/M11 A302 RMK A01 T00601106  RH  029%=      5-min Rain = 0
KMC4 112005Z 30010KT 06/M11 A302 RMK A01 T00601105  RH  030%=      5-min Rain = 0
KMC4 112006Z 32008KT 06/M10 A302 RMK A01 T00611103  RH  030%=      5-min Rain = 0
KMC4 112007Z 31011KT 06/M10 A302 RMK A01 T00631103  RH  029%=      5-min Rain = 0
KMC4 112008Z 31007KT 06/M10 A302 RMK A01 T00611104  RH  029%=      5-min Rain = 0
KMC4 112009Z 34009KT 06/M10 A3019 RMK A01 T00611104  RH  030%=      5-min Rain = 0
KMC4 112010Z 35009KT 06/M11 A3019 RMK A01 T00581107  RH  029%=      5-min Rain = 0
KMC4 112011Z 35013G18KT 06/M11 A3019 RMK A01 T00571107  RH  030%=      5-min Rain = 0
KMC4 112012Z 32014KT 06/M11 A3019 RMK A01 T00571106  RH  030%=      5-min Rain = 0
KMC4 112013Z 32010KT 06/M10 A3019 RMK A01 T00591104  RH  030%=      5-min Rain = 0
KMC4 112014Z 32011KT 06/M10 A302 RMK A01 T00621102  RH  030%=      5-min Rain = 0
KMC4 112015Z 32012KT 06/M10 A302 RMK A01 T00631103  RH  029%=      5-min Rain = 0
KMC4 112016Z 31009KT 06/M11 A302 RMK A01 T00601105  RH  029%=      5-min Rain = 0
KMC4 112017Z 31008KT 06/M11 A302 RMK A01 T00581105  RH  030%=      5-min Rain = 0
KMC4 112018Z 31011KT 06/M11 A302 RMK A01 T00561107  RH  030%=      5-min Rain = 0
KMC4 112019Z 31009KT 05/M11 A302 RMK A01 T00541108  RH  030%=      5-min Rain = 0
KMC4 112020Z 32008KT 05/M11 A3019 RMK A01 T00521108  RH  030%=      5-min Rain = 0
KMC4 112021Z 32009KT 05/M11 A3019 RMK A01 T00521108  RH  031%=      5-min Rain = 0
KMC4 112022Z 31010KT 05/M11 A3019 RMK A01 T00521107  RH  031%=      5-min Rain = 0
KMC4 112023Z 31011KT 05/M11 A3019 RMK A01 T00541106  RH  030%=      5-min Rain = 0
KMC4 112024Z 31009KT 06/M11 A3019 RMK A01 T00551107  RH  030%=      5-min Rain = 0
KMC4 112025Z 33008KT 06/M11 A3019 RMK A01 T00551107  RH  030%=      5-min Rain = 0
KMC4 112026Z 35008KT 06/M11 A3019 RMK A01 T00551107  RH  030%=      5-min Rain = 0
KMC4 112027Z 34009KT 05/M11 A3019 RMK A01 T00531108  RH  030%=      5-min Rain = 0
KMC4 112028Z 34009KT 06/M11 A3019 RMK A01 T00551106  RH  030%=      5-min Rain = 0
KMC4 112029Z 34011KT 06/M11 A3019 RMK A01 T00561106  RH  030%=      5-min Rain = 0
KMC4 112030Z 34009KT 06/M11 A3019 RMK A01 T00571106  RH  030%=      5-min Rain = 0
KMC4 112031Z 31010KT 06/M11 A3019 RMK A01 T00571107  RH  030%=      5-min Rain = 0
KMC4 112032Z 31009KT 06/M11 A3019 RMK A01 T00571107  RH  030%=      5-min Rain = 0
KMC4 112033Z 31011KT 06/M11 A3019 RMK A01 T00561106  RH  030%=      5-min Rain = 0
KMC4 112034Z 32010KT 06/M11 A3019 RMK A01 T00561107  RH  030%=      5-min Rain = 0
KMC4 112035Z 31010KT 06/M11 A3019 RMK A01 T00561106  RH  030%=      5-min Rain = 0
KMC4 112036Z 32011KT 06/M11 A3019 RMK A01 T00571106  RH  030%=      5-min Rain = 0
KMC4 112037Z 33010KT 06/M11 A3019 RMK A01 T00581106  RH  030%=      5-min Rain = 0
KMC4 112038Z 33008KT 06/M11 A3019 RMK A01 T00571107  RH  030%=      5-min Rain = 0
KMC4 112039Z 33007KT 05/M11 A3019 RMK A01 T00541110  RH  030%=      5-min Rain = 0
KMC4 112040Z 33006KT 05/M11 A3019 RMK A01 T00531108  RH  030%=      5-min Rain = 0
KMC4 112041Z 33010KT 06/M11 A3019 RMK A01 T00561106  RH  030%=      5-min Rain = 0
KMC4 112042Z 33012KT 06/M11 A3019 RMK A01 T00581106  RH  030%=      5-min Rain = 0
KMC4 112043Z 33011KT 06/M11 A3019 RMK A01 T00561108  RH  030%=      5-min Rain = 0
KMC4 112044Z 33011KT 06/M11 A3019 RMK A01 T00561108  RH  030%=      5-min Rain = 0
KMC4 112045Z 32011KT 06/M11 A3019 RMK A01 T00561108  RH  030%=      5-min Rain = 0
KMC4 112046Z 31010KT 06/M11 A3019 RMK A01 T00561107  RH  030%=      5-min Rain = 0
KMC4 112047Z 31008KT 06/M11 A3019 RMK A01 T00571107  RH  030%=      5-min Rain = 0
KMC4 112048Z 30008KT 06/M11 A3019 RMK A01 T00571106  RH  030%=      5-min Rain = 0
KMC4 112049Z 31009KT 06/M11 A3019 RMK A01 T00571107  RH  029%=      5-min Rain = 0
KMC4 112050Z 31010KT 06/M11 A3019 RMK A01 T00571106  RH  030%=      5-min Rain = 0
KMC4 112051Z 34010KT 06/M11 A3019 RMK A01 T00611105  RH  029%=      5-min Rain = 0
KMC4 112052Z 35006KT 06/M11 A3019 RMK A01 T00601108  RH  029%=      5-min Rain = 0
KMC4 112053Z 33006KT 06/M11 A3019 RMK A01 T00571110  RH  029%=      5-min Rain = 0
KMC4 112054Z 31009KT 06/M11 A3019 RMK A01 T00571107  RH  030%=      5-min Rain = 0
KMC4 112055Z 31012KT 06/M11 A3018 RMK A01 T00611105  RH  029%=      5-min Rain = 0
KMC4 112056Z 31011KT 06/M11 A3018 RMK A01 T00621106  RH  029%=      5-min Rain = 0
KMC4 112057Z 31008G13KT 06/M11 A3018 RMK A01 T00611108  RH  029%=      5-min Rain = 0
KMC4 112058Z 31008KT 06/M11 A3018 RMK A01 T00591108  RH  029%=      5-min Rain = 0
KMC4 112059Z 31009KT 06/M11 A3018 RMK A01 T00591106  RH  029%=      5-min Rain = 0
KMC4 112100Z 30005KT 06/M11 A3018 RMK A01 T00611106  RH  029%=      5-min Rain = 0
KMC4 112101Z 29009KT 06/M11 A3018 RMK A01 T00611107  RH  029%=      5-min Rain = 0
KMC4 112102Z 30009KT 06/M11 A3018 RMK A01 T00611107  RH  029%=      5-min Rain = 0
KMC4 112103Z 34009KT 06/M11 A3018 RMK A01 T00611106  RH  029%=      5-min Rain = 0
KMC4 112104Z 33010KT 06/M11 A3018 RMK A01 T00641105  RH  029%=      5-min Rain = 0
KMC4 112105Z 32010KT 06/M11 A3018 RMK A01 T00641106  RH  029%=      5-min Rain = 0
KMC4 112106Z 33009KT 06/M11 A3018 RMK A01 T00621108  RH  028%=      5-min Rain = 0
KMC4 112107Z 33012KT 06/M11 A3018 RMK A01 T00611107  RH  029%=      5-min Rain = 0
KMC4 112108Z 32012KT 06/M11 A3018 RMK A01 T00611108  RH  029%=      5-min Rain = 0
KMC4 112109Z 33012KT 06/M11 A3018 RMK A01 T00601108  RH  029%=      5-min Rain = 0
KMC4 112110Z 32008KT 06/M11 A3018 RMK A01 T00581109  RH  029%=      5-min Rain = 0
KMC4 112111Z 31009KT 06/M11 A3018 RMK A01 T00611105  RH  029%=      5-min Rain = 0
KMC4 112112Z 30011KT 06/M11 A3018 RMK A01 T00641105  RH  029%=      5-min Rain = 0
KMC4 112113Z 31008KT 06/M11 A3018 RMK A01 T00621108  RH  028%=      5-min Rain = 0
KMC4 112114Z 31011KT 06/M11 A3018 RMK A01 T00601108  RH  029%=      5-min Rain = 0
KMC4 112115Z 33011KT 06/M11 A3018 RMK A01 T00621106  RH  029%=      5-min Rain = 0
KMC4 112116Z 33010KT 06/M11 A3018 RMK A01 T00641107  RH  028%=      5-min Rain = 0
KMC4 112117Z 32008KT 06/M11 A3018 RMK A01 T00601110  RH  028%=      5-min Rain = 0
KMC4 112118Z 34008KT 06/M11 A3018 RMK A01 T00591108  RH  029%=      5-min Rain = 0
KMC4 112119Z 35009KT 06/M11 A3018 RMK A01 T00611108  RH  029%=      5-min Rain = 0
KMC4 112120Z 34010KT 06/M11 A3018 RMK A01 T00611109  RH  028%=      5-min Rain = 0
KMC4 112121Z 34009KT 06/M11 A3018 RMK A01 T00611109  RH  028%=      5-min Rain = 0
KMC4 112122Z 32008KT 06/M11 A3018 RMK A01 T00611109  RH  028%=      5-min Rain = 0
KMC4 112123Z 33008KT 06/M11 A3018 RMK A01 T00611109  RH  028%=      5-min Rain = 0
KMC4 112124Z 33009KT 06/M11 A3018 RMK A01 T00621108  RH  028%=      5-min Rain = 0
KMC4 112125Z 33008KT 06/M11 A3018 RMK A01 T00621108  RH  028%=      5-min Rain = 0
KMC4 112126Z 34004KT 06/M11 A3018 RMK A01 T00621109  RH  028%=      5-min Rain = 0
KMC4 112127Z 33005KT 06/M11 A3018 RMK A01 T00611110  RH  028%=      5-min Rain = 0
KMC4 112128Z 34005KT 06/M11 A3018 RMK A01 T00601109  RH  028%=      5-min Rain = 0
KMC4 112129Z 33005KT 06/M11 A3018 RMK A01 T00591110  RH  029%=      5-min Rain = 0
KMC4 112130Z 33007KT 06/M11 A3018 RMK A01 T00611108  RH  029%=      5-min Rain = 0
KMC4 112131Z 00009KT 06/M11 A3018 RMK A01 T00631106  RH  029%=      5-min Rain = 0
KMC4 112132Z 00008KT 06/M11 A3018 RMK A01 T00631109  RH  028%=      5-min Rain = 0
KMC4 112133Z 00004KT 06/M11 A3018 RMK A01 T00601111  RH  028%=      5-min Rain = 0
KMC4 112134Z 34004KT 06/M11 A3018 RMK A01 T00581111  RH  029%=      5-min Rain = 0
KMC4 112135Z 33006KT 06/M11 A3018 RMK A01 T00581109  RH  029%=      5-min Rain = 0
KMC4 112136Z 33009KT 06/M11 A3018 RMK A01 T00591109  RH  029%=      5-min Rain = 0
KMC4 112137Z 34007KT 06/M11 A3018 RMK A01 T00601109  RH  028%=      5-min Rain = 0
KMC4 112138Z 32004KT 06/M11 A3018 RMK A01 T00611108  RH  029%=      5-min Rain = 0
KMC4 112139Z 33008KT 06/M11 A3018 RMK A01 T00621107  RH  029%=      5-min Rain = 0
KMC4 112140Z 32007KT 06/M11 A3018 RMK A01 T00641107  RH  028%=      5-min Rain = 0
KMC4 112141Z 34006KT 06/M11 A3018 RMK A01 T00631108  RH  028%=      5-min Rain = 0
KMC4 112142Z 32005KT 06/M11 A3018 RMK A01 T00621109  RH  028%=      5-min Rain = 0
KMC4 112143Z 32007KT 06/M11 A3018 RMK A01 T00621108  RH  028%=      5-min Rain = 0
KMC4 112144Z 35004KT 06/M11 A3018 RMK A01 T00631107  RH  028%=      5-min Rain = 0
KMC4 112145Z 30003KT 06/M11 A3018 RMK A01 T00641109  RH  028%=      5-min Rain = 0
KMC4 112146Z 31007KT 06/M11 A3018 RMK A01 T00641108  RH  028%=      5-min Rain = 0
KMC4 112147Z 33008KT 07/M11 A3018 RMK A01 T00661107  RH  028%=      5-min Rain = 0
KMC4 112148Z 36006KT 06/M11 A3018 RMK A01 T00641110  RH  028%=      5-min Rain = 0
KMC4 112149Z 00005KT 06/M11 A3018 RMK A01 T00641109  RH  028%=      5-min Rain = 0
KMC4 112150Z 01009KT 06/M11 A3018 RMK A01 T00641109  RH  028%=      5-min Rain = 0
KMC4 112151Z 01008KT 06/M11 A3018 RMK A01 T00631109  RH  028%=      5-min Rain = 0
KMC4 112152Z 01008KT 06/M11 A3018 RMK A01 T00631109  RH  028%=      5-min Rain = 0
KMC4 112153Z 34007KT 06/M11 A3018 RMK A01 T00621110  RH  028%=      5-min Rain = 0
KMC4 112154Z 34007KT 06/M11 A3018 RMK A01 T00631109  RH  028%=      5-min Rain = 0
KMC4 112155Z 34006KT 06/M11 A3018 RMK A01 T00631109  RH  028%=      5-min Rain = 0
KMC4 112156Z 35006KT 06/M11 A3018 RMK A01 T00631110  RH  028%=      5-min Rain = 0
KMC4 112157Z 34004KT 06/M11 A3018 RMK A01 T00621110  RH  028%=      5-min Rain = 0
KMC4 112158Z 33007KT 06/M11 A3018 RMK A01 T00621109  RH  028%=      5-min Rain = 0
KMC4 112159Z 34009KT 06/M11 A3018 RMK A01 T00641107  RH  028%=      5-min Rain = 0
KMC4 112200Z 33009KT 07/M11 A3018 RMK A01 T00661108  RH  028%=      5-min Rain = 0
KMC4 112201Z 35007KT 07/M11 A3018 RMK A01 T00661108  RH  028%=      5-min Rain = 0
KMC4 112202Z 34005KT 07/M11 A3018 RMK A01 T00651109  RH  028%=      5-min Rain = 0
KMC4 112203Z 34006KT 07/M11 A3018 RMK A01 T00651108  RH  028%=      5-min Rain = 0
KMC4 112204Z 34005KT 07/M11 A3018 RMK A01 T00661107  RH  028%=      5-min Rain = 0
KMC4 112205Z 03006G11KT 07/M11 A3018 RMK A01 T00671107  RH  028%=      5-min Rain = 0
KMC4 112206Z 35009KT 07/M11 A3017 RMK A01 T00671108  RH  027%=      5-min Rain = 0
KMC4 112207Z 35006KT 07/M11 A3018 RMK A01 T00671108  RH  027%=      5-min Rain = 0
KMC4 112208Z 36006KT 07/M11 A3018 RMK A01 T00661107  RH  028%=      5-min Rain = 0
KMC4 112209Z 36005KT 07/M11 A3018 RMK A01 T00661107  RH  028%=      5-min Rain = 0
KMC4 112210Z 00007KT 07/M11 A3018 RMK A01 T00661107  RH  028%=      5-min Rain = 0
KMC4 112211Z 01006KT 07/M11 A3018 RMK A01 T00661108  RH  028%=      5-min Rain = 0
KMC4 112212Z 35005G10KT 07/M11 A3017 RMK A01 T00651109  RH  028%=      5-min Rain = 0
KMC4 112213Z 34009KT 07/M11 A3017 RMK A01 T00651108  RH  028%=      5-min Rain = 0
KMC4 112214Z 33007KT 07/M11 A3017 RMK A01 T00651108  RH  028%=      5-min Rain = 0
KMC4 112215Z 32008KT 07/M11 A3017 RMK A01 T00681107  RH  027%=      5-min Rain = 0
KMC4 112216Z 32009KT 07/M11 A3017 RMK A01 T00691107  RH  027%=      5-min Rain = 0
KMC4 112217Z 32009KT 07/M11 A3017 RMK A01 T00691107  RH  027%=      5-min Rain = 0
KMC4 112218Z 32008KT 07/M11 A3017 RMK A01 T00691108  RH  027%=      5-min Rain = 0
KMC4 112219Z 31008KT 07/M11 A3017 RMK A01 T00691108  RH  027%=      5-min Rain = 0
KMC4 112220Z 32007KT 07/M11 A3017 RMK A01 T00671109  RH  027%=      5-min Rain = 0
KMC4 112221Z 31005KT 07/M11 A3017 RMK A01 T00671108  RH  027%=      5-min Rain = 0
KMC4 112222Z 31004KT 07/M11 A3017 RMK A01 T00661109  RH  027%=      5-min Rain = 0
KMC4 112223Z 33004KT 07/M11 A3017 RMK A01 T00651109  RH  027%=      5-min Rain = 0
KMC4 112224Z 33004KT 07/M11 A3017 RMK A01 T00651109  RH  028%=      5-min Rain = 0
KMC4 112225Z 32005KT 06/M11 A3017 RMK A01 T00641109  RH  028%=      5-min Rain = 0
KMC4 112226Z 34008KT 07/M11 A3017 RMK A01 T00651108  RH  028%=      5-min Rain = 0
KMC4 112227Z 01006KT 07/M11 A3017 RMK A01 T00671106  RH  028%=      5-min Rain = 0
KMC4 112228Z 35007KT 07/M11 A3017 RMK A01 T00681107  RH  027%=      5-min Rain = 0
KMC4 112229Z 34004KT 07/M11 A3017 RMK A01 T00681107  RH  028%=      5-min Rain = 0
KMC4 112230Z 35007KT 07/M11 A3017 RMK A01 T00691106  RH  028%=      5-min Rain = 0
KMC4 112231Z 34005KT 07/M11 A3017 RMK A01 T00691108  RH  027%=      5-min Rain = 0
KMC4 112232Z 31006KT 07/M11 A3017 RMK A01 T00691106  RH  028%=      5-min Rain = 0
KMC4 112233Z 33009KT 07/M10 A3017 RMK A01 T00731104  RH  027%=      5-min Rain = 0
KMC4 112234Z 34009KT 07/M11 A3017 RMK A01 T00741105  RH  027%=      5-min Rain = 0
KMC4 112235Z 35009KT 07/M11 A3017 RMK A01 T00731107  RH  027%=      5-min Rain = 0
KMC4 112236Z 00007KT 07/M11 A3017 RMK A01 T00691109  RH  027%=      5-min Rain = 0
KMC4 112237Z 34007KT 07/M11 A3017 RMK A01 T00671109  RH  027%=      5-min Rain = 0
KMC4 112238Z 34006KT 07/M11 A3017 RMK A01 T00681108  RH  027%=      5-min Rain = 0
KMC4 112239Z 32006KT 07/M11 A3017 RMK A01 T00691107  RH  027%=      5-min Rain = 0
KMC4 112240Z 31005KT 07/M11 A3017 RMK A01 T00711106  RH  027%=      5-min Rain = 0
KMC4 112241Z 30007KT 07/M11 A3017 RMK A01 T00731106  RH  027%=      5-min Rain = 0
KMC4 112242Z 32009KT 07/M11 A3017 RMK A01 T00711107  RH  027%=      5-min Rain = 0
KMC4 112243Z 32009KT 07/M11 A3017 RMK A01 T00711107  RH  027%=      5-min Rain = 0
KMC4 112244Z 33008KT 07/M11 A3017 RMK A01 T00701107  RH  027%=      5-min Rain = 0
KMC4 112245Z 33006KT 07/M11 A3017 RMK A01 T00691107  RH  027%=      5-min Rain = 0
KMC4 112246Z 33005KT 07/M11 A3017 RMK A01 T00681108  RH  027%=      5-min Rain = 0
KMC4 112247Z 34005KT 07/M11 A3017 RMK A01 T00681107  RH  027%=      5-min Rain = 0
KMC4 112248Z 34005KT 07/M11 A3017 RMK A01 T00671107  RH  028%=      5-min Rain = 0
KMC4 112249Z 34008KT 07/M11 A3017 RMK A01 T00681106  RH  028%=      5-min Rain = 0
KMC4 112250Z 34008KT 07/M11 A3017 RMK A01 T00691105  RH  028%=      5-min Rain = 0
KMC4 112251Z 35007KT 07/M11 A3017 RMK A01 T00691105  RH  028%=      5-min Rain = 0
KMC4 112252Z 34006KT 07/M11 A3017 RMK A01 T00681106  RH  028%=      5-min Rain = 0
KMC4 112253Z 35005KT 07/M11 A3017 RMK A01 T00681105  RH  028%=      5-min Rain = 0
KMC4 112254Z 33008KT 07/M11 A3017 RMK A01 T00691105  RH  028%=      5-min Rain = 0
KMC4 112255Z 32008KT 07/M10 A3017 RMK A01 T00701104  RH  028%=      5-min Rain = 0
KMC4 112256Z 34007KT 07/M10 A3017 RMK A01 T00701104  RH  028%=      5-min Rain = 0
KMC4 112257Z 00007KT 07/M11 A3017 RMK A01 T00711105  RH  027%=      5-min Rain = 0
KMC4 112258Z 00008KT 07/M11 A3017 RMK A01 T00711105  RH  027%=      5-min Rain = 0
KMC4 112259Z 34008KT 07/M11 A3017 RMK A01 T00711105  RH  027%=      5-min Rain = 0
KMC4 112300Z 34006KT 07/M11 A3017 RMK A01 T00711105  RH  027%=      5-min Rain = 0
KMC4 112301Z 32005KT 07/M11 A3017 RMK A01 T00711105  RH  027%=      5-min Rain = 0
KMC4 112302Z 34008KT 07/M10 A3017 RMK A01 T00731103  RH  027%=      5-min Rain = 0
KMC4 112303Z 32006KT 08/M10 A3017 RMK A01 T00751102  RH  027%=      5-min Rain = 0
KMC4 112304Z 34007KT 08/M10 A3017 RMK A01 T00761102  RH  027%=      5-min Rain = 0
KMC4 112305Z 34006KT 08/M11 A3017 RMK A01 T00751105  RH  027%=      5-min Rain = 0
KMC4 112306Z 33008KT 07/M11 A3017 RMK A01 T00741105  RH  027%=      5-min Rain = 0
KMC4 112307Z 32008KT 07/M11 A3017 RMK A01 T00731105  RH  027%=      5-min Rain = 0
KMC4 112308Z 32009KT 07/M11 A3017 RMK A01 T00731105  RH  027%=      5-min Rain = 0
KMC4 112309Z 31007KT 07/M11 A3017 RMK A01 T00731105  RH  027%=      5-min Rain = 0
KMC4 112310Z 30007KT 07/M11 A3017 RMK A01 T00711106  RH  027%=      5-min Rain = 0
KMC4 112311Z 31005KT 07/M11 A3017 RMK A01 T00701105  RH  027%=      5-min Rain = 0
KMC4 112312Z 31006KT 07/M11 A3017 RMK A01 T00701105  RH  028%=      5-min Rain = 0
KMC4 112313Z 31006KT 07/M11 A3017 RMK A01 T00701105  RH  027%=      5-min Rain = 0
KMC4 112314Z 32008KT 07/M10 A3017 RMK A01 T00711104  RH  028%=      5-min Rain = 0
KMC4 112315Z 31007KT 07/M10 A3017 RMK A01 T00721104  RH  027%=      5-min Rain = 0
KMC4 112316Z 32006KT 07/M10 A3017 RMK A01 T00731103  RH  027%=      5-min Rain = 0
KMC4 112317Z 33008KT 08/M10 A3017 RMK A01 T00751102  RH  027%=      5-min Rain = 0
KMC4 112318Z 00006KT 08/M10 A3017 RMK A01 T00751103  RH  027%=      5-min Rain = 0
KMC4 112319Z 01006KT 07/M11 A3017 RMK A01 T00721105  RH  027%=      5-min Rain = 0
KMC4 112320Z 35005KT 07/M11 A3017 RMK A01 T00711105  RH  027%=      5-min Rain = 0
KMC4 112321Z 34008KT 07/M10 A3017 RMK A01 T00701104  RH  028%=      5-min Rain = 0
KMC4 112322Z 34007KT 07/M10 A3017 RMK A01 T00711103  RH  028%=      5-min Rain = 0
KMC4 112323Z 33008KT 07/M10 A3017 RMK A01 T00721103  RH  028%=      5-min Rain = 0
KMC4 112324Z 33008KT 07/M10 A3017 RMK A01 T00711104  RH  028%=      5-min Rain = 0
KMC4 112325Z 33007KT 07/M10 A3017 RMK A01 T00701104  RH  028%=      5-min Rain = 0
KMC4 112326Z 32005KT 07/M10 A3017 RMK A01 T00691104  RH  028%=      5-min Rain = 0
KMC4 112327Z 33005KT 07/M10 A3017 RMK A01 T00691104  RH  028%=      5-min Rain = 0
KMC4 112328Z 34003KT 07/M11 A3017 RMK A01 T00681105  RH  028%=      5-min Rain = 0
KMC4 112329Z 34005KT 07/M10 A3017 RMK A01 T00681104  RH  028%=      5-min Rain = 0
KMC4 112330Z 35007KT 07/M10 A3017 RMK A01 T00681104  RH  028%=      5-min Rain = 0
KMC4 112331Z 34007KT 07/M11 A3017 RMK A01 T00671105  RH  028%=      5-min Rain = 0
KMC4 112332Z 35008KT 07/M10 A3017 RMK A01 T00671104  RH  028%=      5-min Rain = 0
KMC4 112333Z 36006KT 07/M11 A3017 RMK A01 T00681105  RH  028%=      5-min Rain = 0
KMC4 112334Z 34005KT 07/M11 A3017 RMK A01 T00671105  RH  028%=      5-min Rain = 0
KMC4 112335Z 35005KT 07/M10 A3017 RMK A01 T00671104  RH  028%=      5-min Rain = 0
KMC4 112336Z 01005KT 07/M11 A3017 RMK A01 T00681105  RH  028%=      5-min Rain = 0
KMC4 112337Z 35006KT 07/M11 A3017 RMK A01 T00681105  RH  028%=      5-min Rain = 0
KMC4 112338Z 33008KT 07/M10 A3017 RMK A01 T00691104  RH  028%=      5-min Rain = 0
KMC4 112339Z 33008KT 07/M10 A3017 RMK A01 T00701103  RH  028%=      5-min Rain = 0
KMC4 112340Z 34007KT 07/M10 A3017 RMK A01 T00721102  RH  028%=      5-min Rain = 0
KMC4 112341Z 33007KT 07/M10 A3017 RMK A01 T00721103  RH  028%=      5-min Rain = 0
KMC4 112342Z 33007KT 07/M10 A3017 RMK A01 T00721103  RH  028%=      5-min Rain = 0
KMC4 112343Z 35005KT 07/M10 A3017 RMK A01 T00721103  RH  028%=      5-min Rain = 0
KMC4 112344Z 33007KT 07/M10 A3017 RMK A01 T00721103  RH  028%=      5-min Rain = 0
KMC4 112345Z 32008KT 07/M10 A3017 RMK A01 T00711102  RH  028%=      5-min Rain = 0
KMC4 112346Z 32008KT 07/M10 A3017 RMK A01 T00711102  RH  028%=      5-min Rain = 0
KMC4 112347Z 32008KT 07/M10 A3017 RMK A01 T00711103  RH  028%=      5-min Rain = 0
KMC4 112348Z 33007KT 07/M10 A3017 RMK A01 T00701103  RH  028%=      5-min Rain = 0
KMC4 112349Z 32007KT 07/M10 A3017 RMK A01 T00701104  RH  028%=      5-min Rain = 0
KMC4 112350Z 32006KT 07/M10 A3017 RMK A01 T00711103  RH  028%=      5-min Rain = 0
KMC4 112351Z 32005KT 07/M10 A3017 RMK A01 T00711103  RH  028%=      5-min Rain = 0
KMC4 112352Z 32004KT 07/M10 A3017 RMK A01 T00711103  RH  028%=      5-min Rain = 0
KMC4 112353Z 34003KT 07/M10 A3017 RMK A01 T00711103  RH  028%=      5-min Rain = 0
KMC4 112354Z 34003KT 07/M10 A3017 RMK A01 T00711103  RH  028%=      5-min Rain = 0
KMC4 112355Z 35003KT 07/M10 A3017 RMK A01 T00701104  RH  028%=      5-min Rain = 0
KMC4 112356Z 34004KT 07/M10 A3017 RMK A01 T00701104  RH  028%=      5-min Rain = 0
KMC4 112357Z 32003KT 07/M10 A3017 RMK A01 T00701104  RH  028%=      5-min Rain = 0
KMC4 112358Z 34006KT 07/M10 A3017 RMK A01 T00701104  RH  028%=      5-min Rain = 0
KMC4 112359Z 35006KT 07/M10 A3017 RMK A01 T00701103  RH  028%=      5-min Rain = 0
KMC4 120000Z 35007KT 07/M10 A3017 RMK A01 T00711102  RH  028%=      5-min Rain = 0
KMC4 120001Z 34007KT 07/M10 A3017 RMK A01 T00711102  RH  028%=      5-min Rain = 0
KMC4 120002Z 00006KT 07/M10 A3017 RMK A01 T00721101  RH  028%=      5-min Rain = 0
KMC4 120003Z 01007KT 07/M10 A3017 RMK A01 T00721101  RH  028%=      5-min Rain = 0
KMC4 120004Z 01008KT 07/M10 A3017 RMK A01 T00721101  RH  028%=      5-min Rain = 0
KMC4 120005Z 00006KT 07/M10 A3017 RMK A01 T00711102  RH  028%=      5-min Rain = 0
KMC4 120006Z 01005KT 07/M10 A3017 RMK A01 T00711101  RH  028%=      5-min Rain = 0
KMC4 120007Z 01006KT 07/M10 A3017 RMK A01 T00711101  RH  028%=      5-min Rain = 0
KMC4 120008Z 01006KT 07/M10 A3017 RMK A01 T00711102  RH  028%=      5-min Rain = 0
KMC4 120009Z 01005KT 07/M10 A3017 RMK A01 T00701102  RH  028%=      5-min Rain = 0
KMC4 120010Z 01007KT 07/M10 A3017 RMK A01 T00701102  RH  028%=      5-min Rain = 0
KMC4 120011Z 00007KT 07/M10 A3017 RMK A01 T00701102  RH  028%=      5-min Rain = 0
KMC4 120012Z 36007KT 07/M10 A3017 RMK A01 T00691102  RH  028%=      5-min Rain = 0
KMC4 120013Z 36006KT 07/M10 A3017 RMK A01 T00691102  RH  028%=      5-min Rain = 0
KMC4 120014Z 01005KT 07/M10 A3017 RMK A01 T00691102  RH  028%=      5-min Rain = 0
KMC4 120015Z 01008KT 07/M10 A3017 RMK A01 T00691101  RH  028%=      5-min Rain = 0
KMC4 120016Z 02006KT 07/M10 A3017 RMK A01 T00691102  RH  028%=      5-min Rain = 0
KMC4 120017Z 01007KT 07/M10 A3017 RMK A01 T00681102  RH  028%=      5-min Rain = 0
KMC4 120018Z 01006KT 07/M10 A3017 RMK A01 T00681102  RH  028%=      5-min Rain = 0
KMC4 120019Z 01006KT 07/M10 A3018 RMK A01 T00681102  RH  029%=      5-min Rain = 0
KMC4 120020Z 36005KT 07/M10 A3018 RMK A01 T00671102  RH  029%=      5-min Rain = 0
KMC4 120021Z 35006KT 07/M10 A3018 RMK A01 T00671102  RH  029%=      5-min Rain = 0
KMC4 120022Z 35007KT 07/M10 A3018 RMK A01 T00671103  RH  029%=      5-min Rain = 0
KMC4 120023Z 01006KT 07/M10 A3018 RMK A01 T00661103  RH  029%=      5-min Rain = 0
KMC4 120024Z 00005KT 07/M10 A3018 RMK A01 T00661104  RH  029%=      5-min Rain = 0
KMC4 120025Z 36007KT 07/M10 A3018 RMK A01 T00651104  RH  029%=      5-min Rain = 0
KMC4 120026Z 36008KT 07/M10 A3018 RMK A01 T00651103  RH  029%=      5-min Rain = 0
KMC4 120027Z 01008KT 07/M10 A3018 RMK A01 T00651104  RH  029%=      5-min Rain = 0
KMC4 120028Z 00007KT 06/M10 A3018 RMK A01 T00641104  RH  029%=      5-min Rain = 0
KMC4 120029Z 01007KT 06/M10 A3018 RMK A01 T00641104  RH  029%=      5-min Rain = 0
KMC4 120030Z 01006KT 06/M10 A3019 RMK A01 T00641103  RH  029%=      5-min Rain = 0
KMC4 120031Z 36007KT 06/M10 A3019 RMK A01 T00641103  RH  029%=      5-min Rain = 0
KMC4 120032Z 00007KT 06/M10 A3019 RMK A01 T00631104  RH  029%=      5-min Rain = 0
KMC4 120033Z 01007KT 06/M10 A3019 RMK A01 T00631104  RH  029%=      5-min Rain = 0
KMC4 120034Z 01005KT 06/M10 A3019 RMK A01 T00621104  RH  029%=      5-min Rain = 0
KMC4 120035Z 01007KT 06/M10 A3019 RMK A01 T00621104  RH  029%=      5-min Rain = 0
KMC4 120036Z 00006KT 06/M10 A3019 RMK A01 T00621104  RH  029%=      5-min Rain = 0
KMC4 120037Z 00006KT 06/M10 A3019 RMK A01 T00611104  RH  029%=      5-min Rain = 0
KMC4 120038Z 00007KT 06/M10 A3019 RMK A01 T00611103  RH  030%=      5-min Rain = 0
KMC4 120039Z 00007KT 06/M10 A3019 RMK A01 T00611104  RH  030%=      5-min Rain = 0
KMC4 120040Z 00006KT 06/M10 A3019 RMK A01 T00601104  RH  030%=      5-min Rain = 0
KMC4 120041Z 01006KT 06/M10 A3019 RMK A01 T00601104  RH  030%=      5-min Rain = 0
KMC4 120042Z 01005KT 06/M10 A3019 RMK A01 T00601104  RH  030%=      5-min Rain = 0
KMC4 120043Z 01005KT 06/M10 A3019 RMK A01 T00601104  RH  030%=      5-min Rain = 0
KMC4 120044Z 01005KT 06/M10 A3019 RMK A01 T00591104  RH  030%=      5-min Rain = 0
KMC4 120045Z 01005KT 06/M10 A3019 RMK A01 T00591104  RH  030%=      5-min Rain = 0
KMC4 120046Z 00005KT 06/M10 A3019 RMK A01 T00591104  RH  030%=      5-min Rain = 0
KMC4 120047Z 01006KT 06/M10 A3019 RMK A01 T00591104  RH  030%=      5-min Rain = 0
KMC4 120048Z 01005KT 06/M11 A3019 RMK A01 T00581105  RH  030%=      5-min Rain = 0
KMC4 120049Z 02006KT 06/M10 A3019 RMK A01 T00581104  RH  030%=      5-min Rain = 0
KMC4 120050Z 02006KT 06/M11 A3019 RMK A01 T00571105  RH  030%=      5-min Rain = 0
KMC4 120051Z 02005KT 06/M11 A3019 RMK A01 T00571105  RH  030%=      5-min Rain = 0
KMC4 120052Z 02005KT 06/M11 A3019 RMK A01 T00571105  RH  030%=      5-min Rain = 0
KMC4 120053Z 02004KT 06/M11 A3019 RMK A01 T00571105  RH  030%=      5-min Rain = 0
KMC4 120054Z 02005KT 06/M11 A3019 RMK A01 T00561105  RH  030%=      5-min Rain = 0
KMC4 120055Z 02004KT 06/M11 A3019 RMK A01 T00561105  RH  030%=      5-min Rain = 0
KMC4 120056Z 02004KT 06/M11 A3019 RMK A01 T00561105  RH  030%=      5-min Rain = 0
KMC4 120057Z 02006KT 06/M11 A3019 RMK A01 T00551105  RH  031%=      5-min Rain = 0
KMC4 120058Z 02004KT 06/M11 A3019 RMK A01 T00551105  RH  031%=      5-min Rain = 0
KMC4 120059Z 03005KT 06/M11 A3019 RMK A01 T00551105  RH  031%=      5-min Rain = 0
KMC4 120100Z 02005KT 05/M10 A3019 RMK A01 T00541104  RH  031%=      5-min Rain = 0
KMC4 120101Z 03004KT 05/M11 A3019 RMK A01 T00541105  RH  031%=      5-min Rain = 0
KMC4 120102Z 02005KT 05/M11 A3019 RMK A01 T00541105  RH  031%=      5-min Rain = 0
KMC4 120103Z 02005KT 05/M10 A3019 RMK A01 T00531104  RH  031%=      5-min Rain = 0
KMC4 120104Z 03004KT 05/M10 A3019 RMK A01 T00531104  RH  031%=      5-min Rain = 0
KMC4 120105Z 03004KT 05/M10 A3019 RMK A01 T00531104  RH  031%=      5-min Rain = 0
KMC4 120106Z 03004KT 05/M10 A3019 RMK A01 T00531104  RH  031%=      5-min Rain = 0
KMC4 120107Z 03005KT 05/M10 A3019 RMK A01 T00531104  RH  031%=      5-min Rain = 0
KMC4 120108Z 03005KT 05/M11 A3019 RMK A01 T00521105  RH  031%=      5-min Rain = 0
KMC4 120109Z 03005KT 05/M11 A3019 RMK A01 T00511105  RH  031%=      5-min Rain = 0
KMC4 120110Z 03005KT 05/M10 A3019 RMK A01 T00511104  RH  032%=      5-min Rain = 0
KMC4 120111Z 03005KT 05/M10 A302 RMK A01 T00511104  RH  032%=      5-min Rain = 0
KMC4 120112Z 03005KT 05/M10 A302 RMK A01 T00511104  RH  032%=      5-min Rain = 0
KMC4 120113Z 03005KT 05/M10 A302 RMK A01 T00511104  RH  032%=      5-min Rain = 0
KMC4 120114Z 03005KT 05/M10 A302 RMK A01 T00511104  RH  032%=      5-min Rain = 0
KMC4 120115Z 03005KT 05/M10 A302 RMK A01 T00511104  RH  032%=      5-min Rain = 0
KMC4 120116Z 03004KT 05/M10 A3019 RMK A01 T00511104  RH  032%=      5-min Rain = 0
KMC4 120117Z 03004KT 05/M10 A3019 RMK A01 T00501104  RH  032%=      5-min Rain = 0
KMC4 120118Z 03004KT 05/M10 A3019 RMK A01 T00501104  RH  032%=      5-min Rain = 0
KMC4 120119Z 03005KT 05/M10 A3019 RMK A01 T00501104  RH  032%=      5-min Rain = 0
KMC4 120120Z 03005KT 05/M10 A3019 RMK A01 T00501104  RH  032%=      5-min Rain = 0
KMC4 120121Z 03005KT 05/M10 A3019 RMK A01 T00501104  RH  032%=      5-min Rain = 0
KMC4 120122Z 03005KT 05/M10 A3019 RMK A01 T00501104  RH  032%=      5-min Rain = 0
KMC4 120123Z 03004KT 05/M10 A3019 RMK A01 T00501104  RH  032%=      5-min Rain = 0
KMC4 120124Z 03004KT 05/M10 A3019 RMK A01 T00501104  RH  032%=      5-min Rain = 0
KMC4 120125Z 02004KT 05/M10 A3019 RMK A01 T00501104  RH  032%=      5-min Rain = 0
KMC4 120126Z 03004KT 05/M10 A3019 RMK A01 T00501104  RH  032%=      5-min Rain = 0
KMC4 120127Z 03005KT 05/M10 A3019 RMK A01 T00501104  RH  032%=      5-min Rain = 0
KMC4 120128Z 04005KT 05/M10 A3019 RMK A01 T00501104  RH  032%=      5-min Rain = 0
KMC4 120129Z 04004KT 05/M10 A3019 RMK A01 T00501104  RH  032%=      5-min Rain = 0
KMC4 120130Z 04004KT 05/M10 A3019 RMK A01 T00491104  RH  032%=      5-min Rain = 0
KMC4 120131Z 04004KT 05/M10 A3019 RMK A01 T00491104  RH  032%=      5-min Rain = 0
KMC4 120132Z 04005KT 05/M10 A3019 RMK A01 T00491104  RH  032%=      5-min Rain = 0
KMC4 120133Z 04005KT 05/M11 A3019 RMK A01 T00481105  RH  032%=      5-min Rain = 0
KMC4 120134Z 04005KT 05/M10 A3019 RMK A01 T00481104  RH  032%=      5-min Rain = 0
KMC4 120135Z 04005KT 05/M10 A3019 RMK A01 T00481104  RH  032%=      5-min Rain = 0
KMC4 120136Z 04004KT 05/M11 A3019 RMK A01 T00471105  RH  032%=      5-min Rain = 0
KMC4 120137Z 04005KT 05/M10 A3019 RMK A01 T00471104  RH  032%=      5-min Rain = 0
KMC4 120138Z 04004KT 05/M11 A3019 RMK A01 T00471105  RH  032%=      5-min Rain = 0
KMC4 120139Z 04006KT 05/M11 A3019 RMK A01 T00461105  RH  032%=      5-min Rain = 0
KMC4 120140Z 04005KT 05/M11 A302 RMK A01 T00461105  RH  033%=      5-min Rain = 0
KMC4 120141Z 04005KT 05/M11 A302 RMK A01 T00461105  RH  033%=      5-min Rain = 0
KMC4 120142Z 04005KT 05/M11 A302 RMK A01 T00461105  RH  033%=      5-min Rain = 0
KMC4 120143Z 04005KT 05/M11 A302 RMK A01 T00451105  RH  033%=      5-min Rain = 0
KMC4 120144Z 04004KT 05/M11 A302 RMK A01 T00451105  RH  033%=      5-min Rain = 0
KMC4 120145Z 04005KT 05/M10 A302 RMK A01 T00461104  RH  033%=      5-min Rain = 0
KMC4 120146Z 04005KT 05/M11 A302 RMK A01 T00451105  RH  033%=      5-min Rain = 0
KMC4 120147Z 04006KT 05/M11 A302 RMK A01 T00451105  RH  033%=      5-min Rain = 0
KMC4 120148Z 04006KT 05/M11 A302 RMK A01 T00451105  RH  033%=      5-min Rain = 0
KMC4 120149Z 04005KT 05/M11 A302 RMK A01 T00451105  RH  033%=      5-min Rain = 0
KMC4 120150Z 04005KT 05/M11 A302 RMK A01 T00451105  RH  033%=      5-min Rain = 0
KMC4 120151Z 05005KT 05/M11 A302 RMK A01 T00451105  RH  033%=      5-min Rain = 0
KMC4 120152Z 05005KT 05/M11 A302 RMK A01 T00451105  RH  033%=      5-min Rain = 0
KMC4 120153Z 05005KT 04/M11 A302 RMK A01 T00441105  RH  033%=      5-min Rain = 0
KMC4 120154Z 05004KT 04/M11 A302 RMK A01 T00441105  RH  033%=      5-min Rain = 0
KMC4 120155Z 05004KT 04/M11 A302 RMK A01 T00431105  RH  033%=      5-min Rain = 0
KMC4 120156Z 05004KT 04/M11 A302 RMK A01 T00441105  RH  033%=      5-min Rain = 0
KMC4 120157Z 05003KT 04/M11 A3021 RMK A01 T00431105  RH  033%=      5-min Rain = 0
KMC4 120158Z 05004KT 04/M11 A3021 RMK A01 T00431105  RH  033%=      5-min Rain = 0
KMC4 120159Z 05004KT 04/M11 A3021 RMK A01 T00431105  RH  033%=      5-min Rain = 0
KMC4 120200Z 05003KT 04/M11 A3021 RMK A01 T00431105  RH  033%=      5-min Rain = 0
KMC4 120201Z 04004KT 04/M10 A3021 RMK A01 T00431104  RH  033%=      5-min Rain = 0
KMC4 120202Z 04005KT 04/M11 A3021 RMK A01 T00431105  RH  033%=      5-min Rain = 0
KMC4 120203Z 04005KT 04/M10 A3021 RMK A01 T00431104  RH  033%=      5-min Rain = 0
KMC4 120204Z 05005KT 04/M11 A3021 RMK A01 T00431105  RH  033%=      5-min Rain = 0
KMC4 120205Z 05004KT 04/M11 A3021 RMK A01 T00431105  RH  033%=      5-min Rain = 0
KMC4 120206Z 05004KT 04/M11 A3021 RMK A01 T00431105  RH  033%=      5-min Rain = 0
KMC4 120207Z 05003KT 04/M10 A3021 RMK A01 T00431104  RH  033%=      5-min Rain = 0
KMC4 120208Z 05003KT 04/M10 A3021 RMK A01 T00431104  RH  033%=      5-min Rain = 0
KMC4 120209Z 05003KT 04/M11 A3022 RMK A01 T00421105  RH  033%=      5-min Rain = 0
KMC4 120210Z 06003KT 04/M11 A3022 RMK A01 T00421105  RH  033%=      5-min Rain = 0
KMC4 120211Z 06004KT 04/M10 A3022 RMK A01 T00421104  RH  034%=      5-min Rain = 0
KMC4 120212Z 05003KT 04/M11 A3022 RMK A01 T00411105  RH  034%=      5-min Rain = 0
KMC4 120213Z 06004KT 04/M11 A3022 RMK A01 T00411105  RH  034%=      5-min Rain = 0
KMC4 120214Z 06003KT 04/M11 A3022 RMK A01 T00411105  RH  034%=      5-min Rain = 0
KMC4 120215Z 06003KT 04/M11 A3022 RMK A01 T00401105  RH  034%=      5-min Rain = 0
KMC4 120216Z 06003KT 04/M11 A3021 RMK A01 T00401105  RH  034%=      5-min Rain = 0
KMC4 120217Z 05004KT 04/M11 A3021 RMK A01 T00391105  RH  034%=      5-min Rain = 0
KMC4 120218Z 05004KT 04/M11 A3021 RMK A01 T00391105  RH  034%=      5-min Rain = 0
KMC4 120219Z 05004KT 04/M11 A3021 RMK A01 T00381105  RH  034%=      5-min Rain = 0
KMC4 120220Z 06004KT 04/M11 A3021 RMK A01 T00381105  RH  034%=      5-min Rain = 0
KMC4 120221Z 06004KT 04/M11 A3021 RMK A01 T00371105  RH  034%=      5-min Rain = 0
KMC4 120222Z 07004KT 04/M11 A3022 RMK A01 T00371106  RH  034%=      5-min Rain = 0
KMC4 120223Z 07004KT 04/M11 A3022 RMK A01 T00361106  RH  035%=      5-min Rain = 0
KMC4 120224Z 06004KT 04/M11 A3022 RMK A01 T00361105  RH  035%=      5-min Rain = 0
KMC4 120225Z 06003KT 04/M11 A3022 RMK A01 T00361105  RH  035%=      5-min Rain = 0
KMC4 120226Z 06004KT 04/M11 A3022 RMK A01 T00351106  RH  035%=      5-min Rain = 0
KMC4 120227Z 05005KT 04/M11 A3022 RMK A01 T00351105  RH  035%=      5-min Rain = 0
KMC4 120228Z 05004KT 04/M11 A3022 RMK A01 T00351105  RH  035%=      5-min Rain = 0
KMC4 120229Z 05005KT 04/M11 A3022 RMK A01 T00351105  RH  035%=      5-min Rain = 0
KMC4 120230Z 05004KT 04/M11 A3022 RMK A01 T00351105  RH  035%=      5-min Rain = 0
KMC4 120231Z 05005KT 04/M11 A3022 RMK A01 T00351105  RH  035%=      5-min Rain = 0
KMC4 120232Z 05004KT 04/M11 A3022 RMK A01 T00351105  RH  035%=      5-min Rain = 0
KMC4 120233Z 05004KT 03/M11 A3022 RMK A01 T00341105  RH  035%=      5-min Rain = 0
KMC4 120234Z 05004KT 03/M11 A3022 RMK A01 T00341105  RH  035%=      5-min Rain = 0
KMC4 120235Z 05004KT 03/M11 A3022 RMK A01 T00341105  RH  035%=      5-min Rain = 0
KMC4 120236Z 05004KT 03/M11 A3022 RMK A01 T00331105  RH  035%=      5-min Rain = 0
KMC4 120237Z 05004KT 03/M11 A3022 RMK A01 T00331105  RH  036%=      5-min Rain = 0
KMC4 120238Z 04003KT 03/M11 A3022 RMK A01 T00331105  RH  036%=      5-min Rain = 0
KMC4 120239Z 04003KT 03/M11 A3022 RMK A01 T00331105  RH  036%=      5-min Rain = 0
KMC4 120240Z 05004KT 03/M11 A3022 RMK A01 T00331105  RH  036%=      5-min Rain = 0
KMC4 120241Z 05003KT 03/M11 A3022 RMK A01 T00321105  RH  036%=      5-min Rain = 0
KMC4 120242Z 05003KT 03/M11 A3022 RMK A01 T00321106  RH  036%=      5-min Rain = 0
KMC4 120243Z 06003KT 03/M11 A3022 RMK A01 T00311106  RH  036%=      5-min Rain = 0
KMC4 120244Z 07002KT 03/M11 A3022 RMK A01 T00301106  RH  036%=      5-min Rain = 0
KMC4 120245Z 07003KT 03/M11 A3022 RMK A01 T00301106  RH  036%=      5-min Rain = 0
KMC4 120246Z 07003KT 03/M11 A3022 RMK A01 T00301105  RH  036%=      5-min Rain = 0
KMC4 120247Z 08002KT 03/M11 A3022 RMK A01 T00301105  RH  036%=      5-min Rain = 0
KMC4 120248Z 09002KT 03/M11 A3023 RMK A01 T00301105  RH  036%=      5-min Rain = 0
KMC4 120249Z 08003KT 03/M11 A3023 RMK A01 T00301105  RH  036%=      5-min Rain = 0
KMC4 120250Z 08004KT 03/M11 A3023 RMK A01 T00291105  RH  036%=      5-min Rain = 0
KMC4 120251Z 08003KT 03/M11 A3023 RMK A01 T00301105  RH  036%=      5-min Rain = 0
KMC4 120252Z 08003KT 03/M11 A3023 RMK A01 T00291105  RH  037%=      5-min Rain = 0
KMC4 120253Z 08002KT 03/M11 A3023 RMK A01 T00291105  RH  037%=      5-min Rain = 0
KMC4 120254Z 08002KT 03/M11 A3023 RMK A01 T00281105  RH  037%=      5-min Rain = 0
KMC4 120255Z 08003KT 03/M11 A3022 RMK A01 T00281105  RH  037%=      5-min Rain = 0
KMC4 120256Z 08002KT 03/M11 A3022 RMK A01 T00281105  RH  037%=      5-min Rain = 0
KMC4 120257Z 08002KT 03/M11 A3022 RMK A01 T00271106  RH  037%=      5-min Rain = 0
KMC4 120258Z 07002KT 03/M11 A3022 RMK A01 T00251107  RH  037%=      5-min Rain = 0
KMC4 120259Z 09002KT 02/M11 A3022 RMK A01 T00241107  RH  037%=      5-min Rain = 0
KMC4 120300Z 07002KT 02/M11 A3023 RMK A01 T00231107  RH  038%=      5-min Rain = 0
KMC4 120301Z 07002KT 02/M11 A3023 RMK A01 T00221106  RH  038%=      5-min Rain = 0
KMC4 120302Z 08002KT 02/M11 A3023 RMK A01 T00221105  RH  038%=      5-min Rain = 0
KMC4 120303Z 07002KT 02/M11 A3023 RMK A01 T00231105  RH  038%=      5-min Rain = 0
KMC4 120304Z 06002KT 02/M10 A3023 RMK A01 T00241104  RH  038%=      5-min Rain = 0
KMC4 120305Z 07003KT 03/M10 A3023 RMK A01 T00251104  RH  038%=      5-min Rain = 0
KMC4 120306Z 06002KT 02/M11 A3023 RMK A01 T00241105  RH  038%=      5-min Rain = 0
KMC4 120307Z 06003KT 03/M11 A3023 RMK A01 T00251105  RH  038%=      5-min Rain = 0
KMC4 120308Z 05002KT 03/M10 A3023 RMK A01 T00261104  RH  038%=      5-min Rain = 0
KMC4 120309Z 05003KT 03/M10 A3023 RMK A01 T00261104  RH  038%=      5-min Rain = 0
KMC4 120310Z 05003KT 03/M10 A3024 RMK A01 T00271104  RH  038%=      5-min Rain = 0
KMC4 120311Z 05003KT 03/M10 A3024 RMK A01 T00271104  RH  037%=      5-min Rain = 0
KMC4 120312Z 06003KT 03/M10 A3024 RMK A01 T00271104  RH  037%=      5-min Rain = 0
KMC4 120313Z 06003KT 03/M10 A3023 RMK A01 T00271104  RH  037%=      5-min Rain = 0
KMC4 120314Z 06004KT 03/M10 A3023 RMK A01 T00281104  RH  037%=      5-min Rain = 0
KMC4 120315Z 06003KT 03/M10 A3023 RMK A01 T00281104  RH  037%=      5-min Rain = 0
KMC4 120316Z 06003KT 03/M11 A3023 RMK A01 T00281105  RH  037%=      5-min Rain = 0
KMC4 120317Z 06002KT 03/M10 A3023 RMK A01 T00281104  RH  037%=      5-min Rain = 0
KMC4 120318Z 05002KT 03/M11 A3023 RMK A01 T00281105  RH  037%=      5-min Rain = 0
KMC4 120319Z 05002KT 03/M11 A3023 RMK A01 T00271105  RH  037%=      5-min Rain = 0
KMC4 120320Z 06002KT 03/M11 A3023 RMK A01 T00271105  RH  037%=      5-min Rain = 0
KMC4 120321Z 06002KT 03/M11 A3023 RMK A01 T00271105  RH  037%=      5-min Rain = 0
KMC4 120322Z 07003KT 03/M11 A3024 RMK A01 T00261105  RH  037%=      5-min Rain = 0
KMC4 120323Z 08002KT 03/M11 A3024 RMK A01 T00261105  RH  037%=      5-min Rain = 0
KMC4 120324Z 09003KT 03/M11 A3024 RMK A01 T00251106  RH  037%=      5-min Rain = 0
KMC4 120325Z 08003KT 02/M11 A3023 RMK A01 T00241106  RH  038%=      5-min Rain = 0
KMC4 120326Z 08003KT 02/M11 A3023 RMK A01 T00241105  RH  038%=      5-min Rain = 0
KMC4 120327Z 06002KT 02/M11 A3023 RMK A01 T00241105  RH  038%=      5-min Rain = 0
KMC4 120328Z 06003KT 02/M11 A3023 RMK A01 T00231105  RH  038%=      5-min Rain = 0
KMC4 120329Z 06003KT 02/M11 A3023 RMK A01 T00231105  RH  038%=      5-min Rain = 0
KMC4 120330Z 05003KT 02/M11 A3024 RMK A01 T00231105  RH  038%=      5-min Rain = 0
KMC4 120331Z 06003KT 02/M11 A3024 RMK A01 T00221105  RH  038%=      5-min Rain = 0
KMC4 120332Z 06003KT 02/M11 A3024 RMK A01 T00221105  RH  038%=      5-min Rain = 0
KMC4 120333Z 06003KT 02/M11 A3024 RMK A01 T00221105  RH  038%=      5-min Rain = 0
KMC4 120334Z 06003KT 02/M11 A3024 RMK A01 T00221105  RH  038%=      5-min Rain = 0
KMC4 120335Z 05003KT 02/M11 A3024 RMK A01 T00221105  RH  038%=      5-min Rain = 0
KMC4 120336Z 06003KT 02/M11 A3024 RMK A01 T00221105  RH  039%=      5-min Rain = 0
KMC4 120337Z 05004KT 02/M11 A3024 RMK A01 T00221105  RH  039%=      5-min Rain = 0
KMC4 120338Z 05004KT 02/M11 A3024 RMK A01 T00211105  RH  039%=      5-min Rain = 0
KMC4 120339Z 05004KT 02/M11 A3024 RMK A01 T00211105  RH  039%=      5-min Rain = 0
KMC4 120340Z 06004KT 02/M11 A3024 RMK A01 T00211105  RH  039%=      5-min Rain = 0
KMC4 120341Z 06004KT 02/M11 A3024 RMK A01 T00211105  RH  039%=      5-min Rain = 0
KMC4 120342Z 05003KT 02/M10 A3024 RMK A01 T00211104  RH  039%=      5-min Rain = 0
KMC4 120343Z 06004KT 02/M11 A3024 RMK A01 T00211105  RH  039%=      5-min Rain = 0
KMC4 120344Z 06004KT 02/M10 A3024 RMK A01 T00211104  RH  039%=      5-min Rain = 0
KMC4 120345Z 05004KT 02/M11 A3024 RMK A01 T00211105  RH  039%=      5-min Rain = 0
KMC4 120346Z 06004KT 02/M11 A3024 RMK A01 T00211105  RH  039%=      5-min Rain = 0
KMC4 120347Z 05004KT 02/M10 A3023 RMK A01 T00211104  RH  039%=      5-min Rain = 0
KMC4 120348Z 06004KT 02/M11 A3023 RMK A01 T00201105  RH  039%=      5-min Rain = 0
KMC4 120349Z 06004KT 02/M10 A3023 RMK A01 T00201104  RH  039%=      5-min Rain = 0
KMC4 120350Z 06004KT 02/M10 A3023 RMK A01 T00201104  RH  039%=      5-min Rain = 0
KMC4 120351Z 05004KT 02/M10 A3024 RMK A01 T00201104  RH  039%=      5-min Rain = 0
KMC4 120352Z 05004KT 02/M10 A3024 RMK A01 T00201104  RH  039%=      5-min Rain = 0
KMC4 120353Z 05003KT 02/M10 A3024 RMK A01 T00201104  RH  039%=      5-min Rain = 0
KMC4 120354Z 05004KT 02/M10 A3024 RMK A01 T00201104  RH  039%=      5-min Rain = 0
KMC4 120355Z 05004KT 02/M10 A3024 RMK A01 T00201104  RH  039%=      5-min Rain = 0
KMC4 120356Z 05004KT 02/M10 A3024 RMK A01 T00211104  RH  039%=      5-min Rain = 0
KMC4 120357Z 04004KT 02/M11 A3024 RMK A01 T00211105  RH  039%=      5-min Rain = 0
KMC4 120358Z 04003KT 02/M10 A3024 RMK A01 T00211104  RH  039%=      5-min Rain = 0
KMC4 120359Z 04004KT 02/M10 A3024 RMK A01 T00211104  RH  039%=      5-min Rain = 0
KMC4 120400Z 04004KT 02/M10 A3024 RMK A01 T00211104  RH  039%=      5-min Rain = 0
KMC4 120401Z 03004KT 02/M11 A3024 RMK A01 T00201105  RH  039%=      5-min Rain = 0
KMC4 120402Z 03004KT 02/M11 A3024 RMK A01 T00201105  RH  039%=      5-min Rain = 0
KMC4 120403Z 04005KT 02/M11 A3024 RMK A01 T00191105  RH  039%=      5-min Rain = 0
KMC4 120404Z 03005KT 02/M10 A3024 RMK A01 T00201104  RH  039%=      5-min Rain = 0
KMC4 120405Z 03005KT 02/M10 A3024 RMK A01 T00191104  RH  039%=      5-min Rain = 0
KMC4 120406Z 03005KT 02/M10 A3024 RMK A01 T00191104  RH  039%=      5-min Rain = 0
KMC4 120407Z 03004KT 02/M10 A3024 RMK A01 T00191104  RH  040%=      5-min Rain = 0
KMC4 120408Z 03004KT 02/M10 A3024 RMK A01 T00191104  RH  040%=      5-min Rain = 0
KMC4 120409Z 04004KT 02/M10 A3024 RMK A01 T00191104  RH  040%=      5-min Rain = 0
KMC4 120410Z 05003KT 02/M10 A3024 RMK A01 T00201104  RH  039%=      5-min Rain = 0
KMC4 120411Z 05002KT 02/M10 A3024 RMK A01 T00191104  RH  039%=      5-min Rain = 0
KMC4 120412Z 07002KT 02/M11 A3024 RMK A01 T00191105  RH  039%=      5-min Rain = 0
KMC4 120413Z 08002KT 02/M10 A3024 RMK A01 T00201104  RH  039%=      5-min Rain = 0
KMC4 120414Z 08002KT 02/M10 A3024 RMK A01 T00191104  RH  039%=      5-min Rain = 0
KMC4 120415Z 10001KT 02/M10 A3024 RMK A01 T00191104  RH  039%=      5-min Rain = 0
KMC4 120416Z 09002KT 02/M11 A3024 RMK A01 T00191105  RH  040%=      5-min Rain = 0
KMC4 120417Z 09002KT 02/M10 A3024 RMK A01 T00191104  RH  040%=      5-min Rain = 0
KMC4 120418Z 11002KT 02/M10 A3024 RMK A01 T00191104  RH  040%=      5-min Rain = 0
KMC4 120419Z 15002KT 02/M10 A3024 RMK A01 T00191104  RH  040%=      5-min Rain = 0
KMC4 120420Z 14003KT 02/M11 A3024 RMK A01 T00181105  RH  040%=      5-min Rain = 0
KMC4 120421Z 14003KT 02/M11 A3024 RMK A01 T00181105  RH  040%=      5-min Rain = 0
KMC4 120422Z 11002KT 02/M11 A3024 RMK A01 T00171105  RH  040%=      5-min Rain = 0
KMC4 120423Z 10002KT 02/M11 A3024 RMK A01 T00161105  RH  040%=      5-min Rain = 0
KMC4 120424Z 08003KT 02/M11 A3024 RMK A01 T00161105  RH  040%=      5-min Rain = 0
KMC4 120425Z 07003KT 02/M11 A3024 RMK A01 T00151105  RH  040%=      5-min Rain = 0
KMC4 120426Z 07003KT 02/M11 A3024 RMK A01 T00151105  RH  040%=      5-min Rain = 0
KMC4 120427Z 06003KT 02/M11 A3024 RMK A01 T00161105  RH  040%=      5-min Rain = 0
KMC4 120428Z 08004KT 02/M11 A3024 RMK A01 T00161105  RH  040%=      5-min Rain = 0
KMC4 120429Z 08003KT 02/M11 A3024 RMK A01 T00171105  RH  040%=      5-min Rain = 0
KMC4 120430Z 08003KT 02/M11 A3024 RMK A01 T00171105  RH  040%=      5-min Rain = 0
KMC4 120431Z 08003KT 02/M11 A3024 RMK A01 T00171105  RH  040%=      5-min Rain = 0
KMC4 120432Z 06004KT 02/M11 A3024 RMK A01 T00171105  RH  040%=      5-min Rain = 0
KMC4 120433Z 06004KT 02/M11 A3024 RMK A01 T00171105  RH  040%=      5-min Rain = 0
KMC4 120434Z 06005KT 02/M11 A3024 RMK A01 T00161106  RH  040%=      5-min Rain = 0
KMC4 120435Z 06005KT 02/M11 A3024 RMK A01 T00161105  RH  040%=      5-min Rain = 0
KMC4 120436Z 06005KT 02/M11 A3024 RMK A01 T00161105  RH  040%=      5-min Rain = 0
KMC4 120437Z 05005KT 02/M11 A3024 RMK A01 T00161105  RH  040%=      5-min Rain = 0
KMC4 120438Z 05005KT 02/M11 A3024 RMK A01 T00161105  RH  040%=      5-min Rain = 0
KMC4 120439Z 05004KT 02/M11 A3024 RMK A01 T00161105  RH  040%=      5-min Rain = 0
KMC4 120440Z 06004KT 02/M11 A3024 RMK A01 T00161105  RH  040%=      5-min Rain = 0
KMC4 120441Z 06005KT 02/M11 A3024 RMK A01 T00161105  RH  040%=      5-min Rain = 0
KMC4 120442Z 06005KT 02/M11 A3024 RMK A01 T00161105  RH  040%=      5-min Rain = 0
KMC4 120443Z 07005KT 02/M11 A3024 RMK A01 T00161105  RH  040%=      5-min Rain = 0
KMC4 120444Z 07005KT 02/M11 A3025 RMK A01 T00171105  RH  040%=      5-min Rain = 0
KMC4 120445Z 07004KT 02/M11 A3025 RMK A01 T00181105  RH  040%=      5-min Rain = 0
KMC4 120446Z 06004KT 02/M11 A3025 RMK A01 T00181105  RH  040%=      5-min Rain = 0
KMC4 120447Z 05003KT 02/M11 A3025 RMK A01 T00181105  RH  040%=      5-min Rain = 0
KMC4 120448Z 06004KT 02/M11 A3025 RMK A01 T00171105  RH  040%=      5-min Rain = 0
KMC4 120449Z 05004KT 02/M10 A3025 RMK A01 T00171104  RH  040%=      5-min Rain = 0
KMC4 120450Z 06003KT 02/M11 A3025 RMK A01 T00171105  RH  040%=      5-min Rain = 0
KMC4 120451Z 05003KT 02/M10 A3025 RMK A01 T00171104  RH  040%=      5-min Rain = 0
KMC4 120452Z 05003KT 02/M10 A3025 RMK A01 T00171104  RH  040%=      5-min Rain = 0
KMC4 120453Z 06003KT 02/M10 A3025 RMK A01 T00171104  RH  040%=      5-min Rain = 0
KMC4 120454Z 07003KT 02/M10 A3025 RMK A01 T00171104  RH  040%=      5-min Rain = 0
KMC4 120455Z 08002KT 02/M10 A3025 RMK A01 T00171104  RH  040%=      5-min Rain = 0
KMC4 120456Z 08003KT 02/M10 A3025 RMK A01 T00171104  RH  040%=      5-min Rain = 0
KMC4 120457Z 13002KT 02/M11 A3025 RMK A01 T00161105  RH  040%=      5-min Rain = 0
KMC4 120458Z 11002KT 02/M11 A3025 RMK A01 T00151105  RH  040%=      5-min Rain = 0
KMC4 120459Z 12001KT 01/M11 A3025 RMK A01 T00141106  RH  040%=      5-min Rain = 0
KMC4 120500Z 11002KT 01/M11 A3025 RMK A01 T00141106  RH  041%=      5-min Rain = 0
KMC4 120501Z 10002KT 01/M11 A3025 RMK A01 T00131105  RH  041%=      5-min Rain = 0
KMC4 120502Z 10002KT 01/M11 A3025 RMK A01 T00131105  RH  041%=      5-min Rain = 0
KMC4 120503Z 10002KT 01/M11 A3025 RMK A01 T00131105  RH  041%=      5-min Rain = 0
KMC4 120504Z 10002KT 01/M11 A3025 RMK A01 T00121105  RH  041%=      5-min Rain = 0
KMC4 120505Z 09003KT 01/M11 A3025 RMK A01 T00111106  RH  041%=      5-min Rain = 0
KMC4 120506Z 09003KT 01/M11 A3025 RMK A01 T00111105  RH  042%=      5-min Rain = 0
KMC4 120507Z 09004KT 01/M11 A3025 RMK A01 T00121105  RH  042%=      5-min Rain = 0
KMC4 120508Z 09004KT 01/M11 A3025 RMK A01 T00111105  RH  042%=      5-min Rain = 0
KMC4 120509Z 08004KT 01/M10 A3025 RMK A01 T00121104  RH  041%=      5-min Rain = 0
KMC4 120510Z 09004KT 01/M10 A3025 RMK A01 T00131104  RH  041%=      5-min Rain = 0
KMC4 120511Z 09004KT 01/M10 A3025 RMK A01 T00131104  RH  041%=      5-min Rain = 0
KMC4 120512Z 08003KT 01/M10 A3025 RMK A01 T00131104  RH  041%=      5-min Rain = 0
KMC4 120513Z 08004KT 01/M10 A3025 RMK A01 T00131104  RH  041%=      5-min Rain = 0
KMC4 120514Z 08004KT 01/M10 A3025 RMK A01 T00131104  RH  041%=      5-min Rain = 0
KMC4 120515Z 08004KT 01/M10 A3025 RMK A01 T00131104  RH  041%=      5-min Rain = 0
KMC4 120516Z 08003KT 01/M10 A3025 RMK A01 T00131104  RH  041%=      5-min Rain = 0
KMC4 120517Z 07003KT 01/M10 A3025 RMK A01 T00131104  RH  041%=      5-min Rain = 0
KMC4 120518Z 07003KT 01/M10 A3025 RMK A01 T00121104  RH  042%=      5-min Rain = 0
KMC4 120519Z 07003KT 01/M10 A3025 RMK A01 T00131104  RH  042%=      5-min Rain = 0
KMC4 120520Z 07003KT 01/M10 A3025 RMK A01 T00131104  RH  041%=      5-min Rain = 0
KMC4 120521Z 07003KT 01/M10 A3025 RMK A01 T00131104  RH  041%=      5-min Rain = 0
KMC4 120522Z 08002KT 01/M10 A3025 RMK A01 T00141104  RH  041%=      5-min Rain = 0
KMC4 120523Z 08002KT 01/M10 A3025 RMK A01 T00141104  RH  041%=      5-min Rain = 0
KMC4 120524Z 09001KT 01/M10 A3025 RMK A01 T00141104  RH  041%=      5-min Rain = 0
KMC4 120525Z 10001KT 01/M10 A3025 RMK A01 T00141104  RH  041%=      5-min Rain = 0
KMC4 120526Z 09002KT 01/M10 A3026 RMK A01 T00141104  RH  041%=      5-min Rain = 0
KMC4 120527Z 08001KT 01/M10 A3026 RMK A01 T00141104  RH  041%=      5-min Rain = 0
KMC4 120528Z 08002KT 01/M11 A3025 RMK A01 T00131105  RH  041%=      5-min Rain = 0
KMC4 120529Z 08002KT 01/M10 A3025 RMK A01 T00141104  RH  041%=      5-min Rain = 0
KMC4 120530Z 08001KT 01/M10 A3026 RMK A01 T00141104  RH  041%=      5-min Rain = 0
KMC4 120531Z 08001KT 01/M10 A3026 RMK A01 T00141103  RH  041%=      5-min Rain = 0
KMC4 120532Z 08001KT 01/M10 A3026 RMK A01 T00141104  RH  041%=      5-min Rain = 0
KMC4 120533Z 07001KT 01/M10 A3026 RMK A01 T00131104  RH  041%=      5-min Rain = 0
KMC4 120534Z 08002KT 01/M10 A3025 RMK A01 T00131104  RH  041%=      5-min Rain = 0
KMC4 120535Z 09003KT 01/M10 A3025 RMK A01 T00131104  RH  041%=      5-min Rain = 0
KMC4 120536Z 08003KT 01/M10 A3025 RMK A01 T00131104  RH  041%=      5-min Rain = 0
KMC4 120537Z 07003KT 01/M10 A3025 RMK A01 T00131104  RH  041%=      5-min Rain = 0
KMC4 120538Z 06003KT 01/M10 A3026 RMK A01 T00131104  RH  041%=      5-min Rain = 0
KMC4 120539Z 06003KT 01/M10 A3026 RMK A01 T00131104  RH  041%=      5-min Rain = 0
KMC4 120540Z 07004KT 01/M10 A3025 RMK A01 T00141104  RH  041%=      5-min Rain = 0
KMC4 120541Z 08004KT 01/M11 A3025 RMK A01 T00141105  RH  041%=      5-min Rain = 0
KMC4 120542Z 09003KT 01/M11 A3025 RMK A01 T00141105  RH  041%=      5-min Rain = 0
KMC4 120543Z 10003KT 01/M11 A3025 RMK A01 T00131105  RH  041%=      5-min Rain = 0
KMC4 120544Z 12003KT 01/M10 A3026 RMK A01 T00141104  RH  041%=      5-min Rain = 0
KMC4 120545Z 10003KT 01/M10 A3026 RMK A01 T00131104  RH  041%=      5-min Rain = 0
KMC4 120546Z 10002KT 01/M11 A3026 RMK A01 T00111105  RH  042%=      5-min Rain = 0
KMC4 120547Z 09002KT 01/M10 A3026 RMK A01 T00111104  RH  042%=      5-min Rain = 0
KMC4 120548Z 08002KT 01/M10 A3026 RMK A01 T00111104  RH  042%=      5-min Rain = 0
KMC4 120549Z 07002KT 01/M10 A3026 RMK A01 T00111104  RH  042%=      5-min Rain = 0
KMC4 120550Z 07003KT 01/M11 A3026 RMK A01 T00111105  RH  042%=      5-min Rain = 0
KMC4 120551Z 08003KT 01/M11 A3026 RMK A01 T00111105  RH  042%=      5-min Rain = 0
KMC4 120552Z 08002KT 01/M11 A3026 RMK A01 T00121105  RH  042%=      5-min Rain = 0
KMC4 120553Z 07002KT 01/M10 A3026 RMK A01 T00121104  RH  042%=      5-min Rain = 0
KMC4 120554Z 06003KT 01/M10 A3026 RMK A01 T00121104  RH  042%=      5-min Rain = 0
KMC4 120555Z 06004KT 01/M11 A3026 RMK A01 T00121105  RH  041%=      5-min Rain = 0
KMC4 120556Z 06004KT 01/M11 A3026 RMK A01 T00121105  RH  041%=      5-min Rain = 0
KMC4 120557Z 07004KT 01/M11 A3026 RMK A01 T00121105  RH  041%=      5-min Rain = 0
KMC4 120558Z 07003KT 01/M11 A3026 RMK A01 T00121105  RH  041%=      5-min Rain = 0
KMC4 120559Z 09003KT 01/M11 A3026 RMK A01 T00121105  RH  041%=      5-min Rain = 0

Page generated in 0.0709 seconds.